Observation data for Crane on 05/26/2019      Previous  Date  Next       Current Mesonet Observations  Soil Data  Daily Summary Page  Observations in Plain Language
KCR2 260500Z 12007KT 24/19 A2993 RMK A01 T02380185  RH  072%=      5-min Rain = 0
KCR2 260501Z 12007KT 24/19 A2993 RMK A01 T02370185  RH  072%=      5-min Rain = 0
KCR2 260502Z 12007KT 24/19 A2993 RMK A01 T02370185  RH  073%=      5-min Rain = 0
KCR2 260503Z 12007KT 24/19 A2993 RMK A01 T02360185  RH  073%=      5-min Rain = 0
KCR2 260504Z 12007KT 24/19 A2993 RMK A01 T02360185  RH  073%=      5-min Rain = 0
KCR2 260505Z 12008KT 24/18 A2993 RMK A01 T02360183  RH  072%=      5-min Rain = 0
KCR2 260506Z 12007KT 24/18 A2993 RMK A01 T02380184  RH  072%=      5-min Rain = 0
KCR2 260507Z 13008KT 24/18 A2993 RMK A01 T02380184  RH  072%=      5-min Rain = 0
KCR2 260508Z 13007KT 24/18 A2993 RMK A01 T02380184  RH  071%=      5-min Rain = 0
KCR2 260509Z 12008KT 24/18 A2993 RMK A01 T02390184  RH  071%=      5-min Rain = 0
KCR2 260510Z 13008KT 24/18 A2993 RMK A01 T02390183  RH  071%=      5-min Rain = 0
KCR2 260511Z 12006KT 24/18 A2992 RMK A01 T02400183  RH  071%=      5-min Rain = 0
KCR2 260512Z 13007KT 24/18 A2992 RMK A01 T02400184  RH  071%=      5-min Rain = 0
KCR2 260513Z 13007KT 24/18 A2992 RMK A01 T02390184  RH  071%=      5-min Rain = 0
KCR2 260514Z 13006KT 24/18 A2992 RMK A01 T02390184  RH  071%=      5-min Rain = 0
KCR2 260515Z 13008KT 24/18 A2992 RMK A01 T02390184  RH  072%=      5-min Rain = 0
KCR2 260516Z 13007KT 24/18 A2992 RMK A01 T02380183  RH  071%=      5-min Rain = 0
KCR2 260517Z 13006KT 24/18 A2992 RMK A01 T02390184  RH  071%=      5-min Rain = 0
KCR2 260518Z 13008KT 24/18 A2992 RMK A01 T02400183  RH  071%=      5-min Rain = 0
KCR2 260519Z 14009KT 24/18 A2992 RMK A01 T02400182  RH  070%=      5-min Rain = 0
KCR2 260520Z 13008KT 24/18 A2992 RMK A01 T02420183  RH  070%=      5-min Rain = 0
KCR2 260521Z 13009KT 24/18 A2992 RMK A01 T02420183  RH  069%=      5-min Rain = 0
KCR2 260522Z 13010KT 24/18 A2992 RMK A01 T02430183  RH  069%=      5-min Rain = 0
KCR2 260523Z 13009KT 24/18 A2992 RMK A01 T02440183  RH  069%=      5-min Rain = 0
KCR2 260524Z 13008KT 24/18 A2992 RMK A01 T02440183  RH  069%=      5-min Rain = 0
KCR2 260525Z 13007KT 24/18 A2992 RMK A01 T02440183  RH  069%=      5-min Rain = 0
KCR2 260526Z 13008KT 24/18 A2992 RMK A01 T02440183  RH  069%=      5-min Rain = 0
KCR2 260527Z 13008KT 24/18 A2992 RMK A01 T02430182  RH  069%=      5-min Rain = 0
KCR2 260528Z 13009KT 24/18 A2992 RMK A01 T02440182  RH  069%=      5-min Rain = 0
KCR2 260529Z 13009KT 24/18 A2992 RMK A01 T02440182  RH  068%=      5-min Rain = 0
KCR2 260530Z 13007KT 24/18 A2992 RMK A01 T02440182  RH  068%=      5-min Rain = 0
KCR2 260531Z 13008KT 24/18 A2992 RMK A01 T02440183  RH  069%=      5-min Rain = 0
KCR2 260532Z 13011KT 24/18 A2992 RMK A01 T02430182  RH  068%=      5-min Rain = 0
KCR2 260533Z 15011G17KT 25/18 A2992 RMK A01 T02460181  RH  067%=      5-min Rain = 0
KCR2 260534Z 13010KT 25/18 A2992 RMK A01 T02470182  RH  067%=      5-min Rain = 0
KCR2 260535Z 13009KT 25/18 A2992 RMK A01 T02470181  RH  067%=      5-min Rain = 0
KCR2 260536Z 13008KT 25/18 A2992 RMK A01 T02470182  RH  067%=      5-min Rain = 0
KCR2 260537Z 13009KT 25/18 A2992 RMK A01 T02460183  RH  068%=      5-min Rain = 0
KCR2 260538Z 13009KT 25/18 A2992 RMK A01 T02460182  RH  067%=      5-min Rain = 0
KCR2 260539Z 14010KT 25/18 A2992 RMK A01 T02460182  RH  068%=      5-min Rain = 0
KCR2 260540Z 14009KT 25/18 A2992 RMK A01 T02450181  RH  067%=      5-min Rain = 0
KCR2 260541Z 13010KT 25/18 A2992 RMK A01 T02450181  RH  067%=      5-min Rain = 0
KCR2 260542Z 13010KT 25/18 A2992 RMK A01 T02470180  RH  066%=      5-min Rain = 0
KCR2 260543Z 13010KT 25/18 A2992 RMK A01 T02470181  RH  066%=      5-min Rain = 0
KCR2 260544Z 14011KT 25/18 A2992 RMK A01 T02470181  RH  066%=      5-min Rain = 0
KCR2 260545Z 13010KT 25/18 A2992 RMK A01 T02470181  RH  066%=      5-min Rain = 0
KCR2 260546Z 13011G16KT 25/18 A2992 RMK A01 T02480181  RH  066%=      5-min Rain = 0
KCR2 260547Z 14011KT 25/18 A2992 RMK A01 T02480180  RH  066%=      5-min Rain = 0
KCR2 260548Z 14009KT 25/18 A2992 RMK A01 T02480181  RH  066%=      5-min Rain = 0
KCR2 260549Z 13011KT 25/18 A2991 RMK A01 T02470181  RH  067%=      5-min Rain = 0
KCR2 260550Z 13010KT 25/18 A2991 RMK A01 T02460180  RH  067%=      5-min Rain = 0
KCR2 260551Z 14009KT 25/18 A2991 RMK A01 T02460180  RH  067%=      5-min Rain = 0
KCR2 260552Z 13013G19KT 25/18 A2991 RMK A01 T02460179  RH  066%=      5-min Rain = 0
KCR2 260553Z 13012KT 25/18 A2991 RMK A01 T02480179  RH  066%=      5-min Rain = 0
KCR2 260554Z 13012KT 25/18 A2991 RMK A01 T02480180  RH  066%=      5-min Rain = 0
KCR2 260555Z 15015G20KT 25/18 A2991 RMK A01 T02480179  RH  066%=      5-min Rain = 0
KCR2 260556Z 14012KT 25/18 A2991 RMK A01 T02480179  RH  065%=      5-min Rain = 0
KCR2 260557Z 14011G16KT 25/18 A2991 RMK A01 T02480179  RH  065%=      5-min Rain = 0
KCR2 260558Z 14014KT 25/18 A2991 RMK A01 T02480178  RH  065%=      5-min Rain = 0
KCR2 260559Z 13013KT 25/18 A2991 RMK A01 T02490178  RH  065%=      5-min Rain = 0
KCR2 260600Z 14015KT 25/18 A2991 RMK A01 T02490178  RH  064%=      5-min Rain = 0
KCR2 260601Z 14012KT 25/18 A2991 RMK A01 T02500178  RH  064%=      5-min Rain = 0
KCR2 260602Z 14011KT 25/18 A2991 RMK A01 T02500179  RH  065%=      5-min Rain = 0
KCR2 260603Z 14011KT 25/18 A2991 RMK A01 T02480180  RH  066%=      5-min Rain = 0
KCR2 260604Z 14012KT 25/18 A299 RMK A01 T02470178  RH  066%=      5-min Rain = 0
KCR2 260605Z 13011KT 25/18 A299 RMK A01 T02470179  RH  066%=      5-min Rain = 0
KCR2 260606Z 14012KT 25/18 A299 RMK A01 T02460179  RH  066%=      5-min Rain = 0
KCR2 260607Z 14013KT 25/18 A299 RMK A01 T02460178  RH  065%=      5-min Rain = 0
KCR2 260608Z 14015KT 25/18 A299 RMK A01 T02470178  RH  065%=      5-min Rain = 0
KCR2 260609Z 14014KT 25/18 A299 RMK A01 T02480178  RH  065%=      5-min Rain = 0
KCR2 260610Z 14014G22KT 25/18 A299 RMK A01 T02480178  RH  065%=      5-min Rain = 0
KCR2 260611Z 14013G19KT 25/18 A299 RMK A01 T02480179  RH  065%=      5-min Rain = 0
KCR2 260612Z 13014KT 25/18 A299 RMK A01 T02470177  RH  065%=      5-min Rain = 0
KCR2 260613Z 13013KT 25/18 A299 RMK A01 T02470177  RH  065%=      5-min Rain = 0
KCR2 260614Z 14013KT 25/18 A299 RMK A01 T02480177  RH  065%=      5-min Rain = 0
KCR2 260615Z 14010KT 25/18 A299 RMK A01 T02470177  RH  065%=      5-min Rain = 0
KCR2 260616Z 14010KT 25/18 A299 RMK A01 T02480178  RH  065%=      5-min Rain = 0
KCR2 260617Z 14012KT 25/18 A299 RMK A01 T02470177  RH  065%=      5-min Rain = 0
KCR2 260618Z 13010KT 25/18 A299 RMK A01 T02470178  RH  065%=      5-min Rain = 0
KCR2 260619Z 14014KT 25/18 A299 RMK A01 T02460177  RH  066%=      5-min Rain = 0
KCR2 260620Z 14012KT 25/18 A299 RMK A01 T02460176  RH  065%=      5-min Rain = 0
KCR2 260621Z 15016KT 25/18 A299 RMK A01 T02470177  RH  065%=      5-min Rain = 0
KCR2 260622Z 15014G20KT 25/18 A299 RMK A01 T02470176  RH  065%=      5-min Rain = 0
KCR2 260623Z 15014G24KT 25/18 A299 RMK A01 T02480177  RH  065%=      5-min Rain = 0
KCR2 260624Z 15017KT 25/18 A299 RMK A01 T02480176  RH  064%=      5-min Rain = 0
KCR2 260625Z 14014KT 25/18 A299 RMK A01 T02500178  RH  064%=      5-min Rain = 0
KCR2 260626Z 15015G20KT 25/18 A299 RMK A01 T02490178  RH  065%=      5-min Rain = 0
KCR2 260627Z 15015KT 25/18 A299 RMK A01 T02480177  RH  065%=      5-min Rain = 0
KCR2 260628Z 14012KT 25/18 A299 RMK A01 T02480178  RH  065%=      5-min Rain = 0
KCR2 260629Z 15015KT 25/18 A299 RMK A01 T02460178  RH  066%=      5-min Rain = 0
KCR2 260630Z 15017G22KT 25/18 A299 RMK A01 T02460177  RH  065%=      5-min Rain = 0
KCR2 260631Z 14013KT 25/18 A299 RMK A01 T02470177  RH  065%=      5-min Rain = 0
KCR2 260632Z 14015KT 25/18 A299 RMK A01 T02480178  RH  065%=      5-min Rain = 0
KCR2 260633Z 14014KT 25/18 A2989 RMK A01 T02470178  RH  065%=      5-min Rain = 0
KCR2 260634Z 14017G24KT 25/18 A2989 RMK A01 T02460179  RH  066%=      5-min Rain = 0
KCR2 260635Z 14018G24KT 25/18 A2989 RMK A01 T02460179  RH  066%=      5-min Rain = 0
KCR2 260636Z 15014KT 25/18 A2989 RMK A01 T02460179  RH  066%=      5-min Rain = 0
KCR2 260637Z 15016KT 25/18 A2989 RMK A01 T02460180  RH  067%=      5-min Rain = 0
KCR2 260638Z 15017G22KT 25/18 A2989 RMK A01 T02460181  RH  067%=      5-min Rain = 0
KCR2 260639Z 15017G22KT 25/18 A2989 RMK A01 T02460181  RH  067%=      5-min Rain = 0
KCR2 260640Z 15014KT 25/18 A2989 RMK A01 T02460181  RH  067%=      5-min Rain = 0
KCR2 260641Z 15016KT 25/18 A2989 RMK A01 T02450182  RH  068%=      5-min Rain = 0
KCR2 260642Z 15016KT 25/18 A2989 RMK A01 T02450182  RH  068%=      5-min Rain = 0
KCR2 260643Z 16018G25KT 25/18 A2989 RMK A01 T02450183  RH  068%=      5-min Rain = 0
KCR2 260644Z 15023G29KT 25/18 A2989 RMK A01 T02450184  RH  069%=      5-min Rain = 0
KCR2 260645Z 15018KT 25/18 A2989 RMK A01 T02460184  RH  068%=      5-min Rain = 0
KCR2 260646Z 15015G21KT 25/18 A2989 RMK A01 T02460184  RH  068%=      5-min Rain = 0
KCR2 260647Z 15015G22KT 25/19 A2989 RMK A01 T02460185  RH  069%=      5-min Rain = 0
KCR2 260648Z 15020KT 25/19 A2989 RMK A01 T02450185  RH  069%=      5-min Rain = 0
KCR2 260649Z 15019KT 25/19 A2989 RMK A01 T02450185  RH  069%=      5-min Rain = 0
KCR2 260650Z 15019G25KT 25/19 A2989 RMK A01 T02450185  RH  069%=      5-min Rain = 0
KCR2 260651Z 15017KT 25/19 A2989 RMK A01 T02450185  RH  069%=      5-min Rain = 0
KCR2 260652Z 16018G24KT 25/19 A2989 RMK A01 T02450186  RH  070%=      5-min Rain = 0
KCR2 260653Z 15014G19KT 25/19 A2989 RMK A01 T02450186  RH  070%=      5-min Rain = 0
KCR2 260654Z 15015G20KT 24/19 A2989 RMK A01 T02440186  RH  070%=      5-min Rain = 0
KCR2 260655Z 15017KT 24/19 A2989 RMK A01 T02430186  RH  070%=      5-min Rain = 0
KCR2 260656Z 15017KT 24/19 A2989 RMK A01 T02430186  RH  071%=      5-min Rain = 0
KCR2 260657Z 15018G23KT 24/19 A2989 RMK A01 T02430186  RH  070%=      5-min Rain = 0
KCR2 260658Z 14019KT 24/19 A2989 RMK A01 T02440187  RH  070%=      5-min Rain = 0
KCR2 260659Z 15020G25KT 24/19 A2989 RMK A01 T02440187  RH  071%=      5-min Rain = 0
KCR2 260700Z 15020G26KT 24/19 A2989 RMK A01 T02440187  RH  071%=      5-min Rain = 0
KCR2 260701Z 15016KT 24/19 A2989 RMK A01 T02440188  RH  071%=      5-min Rain = 0
KCR2 260702Z 14018KT 24/19 A2989 RMK A01 T02430188  RH  071%=      5-min Rain = 0
KCR2 260703Z 15014KT 24/19 A2989 RMK A01 T02420188  RH  071%=      5-min Rain = 0
KCR2 260704Z 15017KT 24/19 A2989 RMK A01 T02420188  RH  072%=      5-min Rain = 0
KCR2 260705Z 14015KT 24/19 A2989 RMK A01 T02420188  RH  072%=      5-min Rain = 0
KCR2 260706Z 14017G22KT 24/19 A2989 RMK A01 T02420188  RH  072%=      5-min Rain = 0
KCR2 260707Z 14016G24KT 24/19 A2989 RMK A01 T02420189  RH  072%=      5-min Rain = 0
KCR2 260708Z 14016KT 24/19 A2989 RMK A01 T02410188  RH  072%=      5-min Rain = 0
KCR2 260709Z 14016KT 24/19 A2989 RMK A01 T02410188  RH  072%=      5-min Rain = 0
KCR2 260710Z 14014KT 24/19 A2989 RMK A01 T02410189  RH  073%=      5-min Rain = 0
KCR2 260711Z 14017G25KT 24/19 A2989 RMK A01 T02400189  RH  073%=      5-min Rain = 0
KCR2 260712Z 15018KT 24/19 A2989 RMK A01 T02400189  RH  073%=      5-min Rain = 0
KCR2 260713Z 14014G19KT 24/19 A2989 RMK A01 T02400189  RH  073%=      5-min Rain = 0
KCR2 260714Z 15015G21KT 24/19 A2989 RMK A01 T02410190  RH  073%=      5-min Rain = 0
KCR2 260715Z 14017KT 24/19 A2989 RMK A01 T02400191  RH  074%=      5-min Rain = 0
KCR2 260716Z 14016G23KT 24/19 A2989 RMK A01 T02400191  RH  074%=      5-min Rain = 0
KCR2 260717Z 15023KT 24/19 A2989 RMK A01 T02400191  RH  074%=      5-min Rain = 0
KCR2 260718Z 15019G24KT 24/19 A2989 RMK A01 T02400191  RH  074%=      5-min Rain = 0
KCR2 260719Z 15017G23KT 24/19 A2989 RMK A01 T02410192  RH  074%=      5-min Rain = 0
KCR2 260720Z 15019KT 24/19 A2989 RMK A01 T02410192  RH  074%=      5-min Rain = 0
KCR2 260721Z 15019KT 24/19 A2989 RMK A01 T02400192  RH  074%=      5-min Rain = 0
KCR2 260722Z 15015KT 24/19 A2989 RMK A01 T02400192  RH  074%=      5-min Rain = 0
KCR2 260723Z 15016KT 24/19 A2989 RMK A01 T02400192  RH  075%=      5-min Rain = 0
KCR2 260724Z 15016G24KT 24/19 A2989 RMK A01 T02390193  RH  075%=      5-min Rain = 0
KCR2 260725Z 15019KT 24/19 A2989 RMK A01 T02390193  RH  075%=      5-min Rain = 0
KCR2 260726Z 15017KT 24/19 A2989 RMK A01 T02390192  RH  075%=      5-min Rain = 0
KCR2 260727Z 15019G24KT 24/19 A2989 RMK A01 T02390192  RH  075%=      5-min Rain = 0
KCR2 260728Z 15017KT 24/19 A2989 RMK A01 T02390192  RH  075%=      5-min Rain = 0
KCR2 260729Z 15017KT 24/19 A2989 RMK A01 T02390193  RH  075%=      5-min Rain = 0
KCR2 260730Z 15015KT 24/19 A2989 RMK A01 T02390192  RH  075%=      5-min Rain = 0
KCR2 260731Z 15013KT 24/19 A2989 RMK A01 T02390193  RH  075%=      5-min Rain = 0
KCR2 260732Z 15017KT 24/19 A2989 RMK A01 T02380193  RH  076%=      5-min Rain = 0
KCR2 260733Z 15016G23KT 24/19 A2989 RMK A01 T02380193  RH  076%=      5-min Rain = 0
KCR2 260734Z 15015KT 24/19 A2989 RMK A01 T02370193  RH  076%=      5-min Rain = 0
KCR2 260735Z 14012KT 24/19 A2989 RMK A01 T02370193  RH  076%=      5-min Rain = 0
KCR2 260736Z 15013KT 24/19 A2989 RMK A01 T02370193  RH  076%=      5-min Rain = 0
KCR2 260737Z 15018G23KT 24/19 A2989 RMK A01 T02360193  RH  077%=      5-min Rain = 0
KCR2 260738Z 15018KT 24/19 A2989 RMK A01 T02370193  RH  076%=      5-min Rain = 0
KCR2 260739Z 15017G24KT 24/19 A2989 RMK A01 T02370194  RH  077%=      5-min Rain = 0
KCR2 260740Z 15018KT 24/19 A2989 RMK A01 T02370193  RH  077%=      5-min Rain = 0
KCR2 260741Z 16016KT 24/19 A2989 RMK A01 T02370194  RH  077%=      5-min Rain = 0
KCR2 260742Z 16019G24KT 24/19 A2989 RMK A01 T02370194  RH  077%=      5-min Rain = 0
KCR2 260743Z 15014KT 24/19 A2989 RMK A01 T02370194  RH  077%=      5-min Rain = 0
KCR2 260744Z 16012KT 24/19 A2989 RMK A01 T02360194  RH  077%=      5-min Rain = 0
KCR2 260745Z 15014KT 24/19 A2989 RMK A01 T02360194  RH  077%=      5-min Rain = 0
KCR2 260746Z 16015KT 24/19 A2989 RMK A01 T02350194  RH  078%=      5-min Rain = 0
KCR2 260747Z 17012KT 24/19 A2989 RMK A01 T02360194  RH  078%=      5-min Rain = 0
KCR2 260748Z 17013G18KT 24/20 A2989 RMK A01 T02350195  RH  078%=      5-min Rain = 0
KCR2 260749Z 16015KT 24/19 A2989 RMK A01 T02350194  RH  078%=      5-min Rain = 0
KCR2 260750Z 16010G15KT 24/19 A2989 RMK A01 T02350194  RH  078%=      5-min Rain = 0
KCR2 260751Z 16012KT 24/19 A2989 RMK A01 T02350194  RH  078%=      5-min Rain = 0
KCR2 260752Z 16013KT 24/19 A2989 RMK A01 T02350194  RH  078%=      5-min Rain = 0
KCR2 260753Z 15013KT 23/20 A2989 RMK A01 T02340195  RH  078%=      5-min Rain = 0
KCR2 260754Z 16015KT 23/20 A2989 RMK A01 T02340195  RH  078%=      5-min Rain = 0
KCR2 260755Z 16013G18KT 23/19 A2989 RMK A01 T02340194  RH  078%=      5-min Rain = 0
KCR2 260756Z 17016G23KT 23/20 A2989 RMK A01 T02340195  RH  078%=      5-min Rain = 0
KCR2 260757Z 17016G22KT 23/20 A2989 RMK A01 T02340195  RH  079%=      5-min Rain = 0
KCR2 260758Z 16016KT 23/20 A2989 RMK A01 T02340195  RH  079%=      5-min Rain = 0
KCR2 260759Z 15013KT 23/20 A2989 RMK A01 T02340195  RH  079%=      5-min Rain = 0
KCR2 260800Z 17013KT 23/20 A2989 RMK A01 T02340195  RH  079%=      5-min Rain = 0
KCR2 260801Z 15014KT 23/20 A2989 RMK A01 T02330195  RH  079%=      5-min Rain = 0
KCR2 260802Z 16014KT 23/20 A2989 RMK A01 T02330195  RH  079%=      5-min Rain = 0
KCR2 260803Z 15016KT 23/20 A2989 RMK A01 T02330195  RH  079%=      5-min Rain = 0
KCR2 260804Z 15015KT 23/19 A2989 RMK A01 T02330194  RH  079%=      5-min Rain = 0
KCR2 260805Z 16016G21KT 23/20 A2989 RMK A01 T02330195  RH  079%=      5-min Rain = 0
KCR2 260806Z 15015KT 23/20 A2989 RMK A01 T02330195  RH  079%=      5-min Rain = 0
KCR2 260807Z 16019G24KT 23/20 A2989 RMK A01 T02330195  RH  079%=      5-min Rain = 0
KCR2 260808Z 15015KT 23/20 A2989 RMK A01 T02330195  RH  079%=      5-min Rain = 0
KCR2 260809Z 15016G24KT 23/19 A2989 RMK A01 T02330194  RH  079%=      5-min Rain = 0
KCR2 260810Z 16018G23KT 23/20 A2989 RMK A01 T02330195  RH  079%=      5-min Rain = 0
KCR2 260811Z 15014KT 23/19 A2989 RMK A01 T02330194  RH  079%=      5-min Rain = 0
KCR2 260812Z 15011KT 23/20 A2989 RMK A01 T02330195  RH  079%=      5-min Rain = 0
KCR2 260813Z 15013KT 23/20 A2989 RMK A01 T02320195  RH  080%=      5-min Rain = 0
KCR2 260814Z 15012KT 23/20 A2989 RMK A01 T02320195  RH  080%=      5-min Rain = 0
KCR2 260815Z 15013KT 23/20 A2989 RMK A01 T02310195  RH  080%=      5-min Rain = 0
KCR2 260816Z 15013KT 23/20 A2989 RMK A01 T02310195  RH  080%=      5-min Rain = 0
KCR2 260817Z 14010KT 23/20 A2989 RMK A01 T02310195  RH  080%=      5-min Rain = 0
KCR2 260818Z 15011KT 23/20 A2989 RMK A01 T02310195  RH  080%=      5-min Rain = 0
KCR2 260819Z 15012KT 23/20 A2989 RMK A01 T02300195  RH  080%=      5-min Rain = 0
KCR2 260820Z 15010KT 23/19 A2989 RMK A01 T02300194  RH  080%=      5-min Rain = 0
KCR2 260821Z 15014KT 23/20 A2989 RMK A01 T02300195  RH  080%=      5-min Rain = 0
KCR2 260822Z 15013KT 23/19 A2989 RMK A01 T02300194  RH  080%=      5-min Rain = 0
KCR2 260823Z 15011KT 23/20 A2989 RMK A01 T02310195  RH  080%=      5-min Rain = 0
KCR2 260824Z 14010KT 23/20 A2989 RMK A01 T02310195  RH  080%=      5-min Rain = 0
KCR2 260825Z 15011G16KT 23/20 A2989 RMK A01 T02300195  RH  080%=      5-min Rain = 0
KCR2 260826Z 15014KT 23/19 A2989 RMK A01 T02300194  RH  080%=      5-min Rain = 0
KCR2 260827Z 15011KT 23/19 A299 RMK A01 T02300194  RH  080%=      5-min Rain = 0
KCR2 260828Z 15010G15KT 23/20 A299 RMK A01 T02290195  RH  081%=      5-min Rain = 0
KCR2 260829Z 15010KT 23/20 A299 RMK A01 T02290195  RH  081%=      5-min Rain = 0
KCR2 260830Z 15013KT 23/20 A299 RMK A01 T02290195  RH  081%=      5-min Rain = 0
KCR2 260831Z 16014KT 23/19 A299 RMK A01 T02290194  RH  081%=      5-min Rain = 0
KCR2 260832Z 15011G17KT 23/19 A2989 RMK A01 T02300194  RH  080%=      5-min Rain = 0
KCR2 260833Z 15013G18KT 23/19 A2989 RMK A01 T02300194  RH  080%=      5-min Rain = 0
KCR2 260834Z 15015KT 23/19 A2989 RMK A01 T02300194  RH  080%=      5-min Rain = 0
KCR2 260835Z 15013KT 23/19 A2989 RMK A01 T02300194  RH  080%=      5-min Rain = 0
KCR2 260836Z 15012KT 23/19 A299 RMK A01 T02300194  RH  080%=      5-min Rain = 0
KCR2 260837Z 14010KT 23/19 A2989 RMK A01 T02300194  RH  081%=      5-min Rain = 0
KCR2 260838Z 15012G17KT 23/19 A2989 RMK A01 T02290194  RH  081%=      5-min Rain = 0
KCR2 260839Z 16012KT 23/19 A2989 RMK A01 T02280194  RH  081%=      5-min Rain = 0
KCR2 260840Z 15015KT 23/20 A2989 RMK A01 T02280195  RH  081%=      5-min Rain = 0
KCR2 260841Z 15015KT 23/19 A2989 RMK A01 T02280194  RH  081%=      5-min Rain = 0
KCR2 260842Z 15012KT 23/19 A299 RMK A01 T02290194  RH  081%=      5-min Rain = 0
KCR2 260843Z 15014G19KT 23/19 A2989 RMK A01 T02290194  RH  081%=      5-min Rain = 0
KCR2 260844Z 15009KT 23/19 A299 RMK A01 T02300194  RH  080%=      5-min Rain = 0
KCR2 260845Z 13008KT 23/19 A299 RMK A01 T02290194  RH  081%=      5-min Rain = 0
KCR2 260846Z 13007KT 23/19 A299 RMK A01 T02290194  RH  081%=      5-min Rain = 0
KCR2 260847Z 14011G16KT 23/20 A2989 RMK A01 T02280195  RH  081%=      5-min Rain = 0
KCR2 260848Z 15009KT 23/20 A2989 RMK A01 T02280195  RH  081%=      5-min Rain = 0
KCR2 260849Z 14009KT 23/19 A2989 RMK A01 T02280194  RH  081%=      5-min Rain = 0
KCR2 260850Z 14009KT 23/19 A299 RMK A01 T02270194  RH  082%=      5-min Rain = 0
KCR2 260851Z 14009KT 23/19 A299 RMK A01 T02270194  RH  082%=      5-min Rain = 0
KCR2 260852Z 15007KT 23/19 A299 RMK A01 T02270194  RH  082%=      5-min Rain = 0
KCR2 260853Z 15010G15KT 23/19 A299 RMK A01 T02270194  RH  082%=      5-min Rain = 0
KCR2 260854Z 15012G17KT 23/19 A299 RMK A01 T02270194  RH  082%=      5-min Rain = 0
KCR2 260855Z 14010G15KT 23/19 A299 RMK A01 T02270193  RH  081%=      5-min Rain = 0
KCR2 260856Z 14008KT 23/19 A299 RMK A01 T02280194  RH  081%=      5-min Rain = 0
KCR2 260857Z 15010KT 23/19 A299 RMK A01 T02280193  RH  081%=      5-min Rain = 0
KCR2 260858Z 15007KT 23/19 A299 RMK A01 T02280193  RH  081%=      5-min Rain = 0
KCR2 260859Z 15006KT 23/19 A299 RMK A01 T02280194  RH  081%=      5-min Rain = 0
KCR2 260900Z 12003KT 23/19 A299 RMK A01 T02280194  RH  081%=      5-min Rain = 0
KCR2 260901Z 13006KT 23/19 A299 RMK A01 T02280194  RH  081%=      5-min Rain = 0
KCR2 260902Z 15008KT 23/19 A299 RMK A01 T02280194  RH  081%=      5-min Rain = 0
KCR2 260903Z 12005KT 23/19 A299 RMK A01 T02280194  RH  081%=      5-min Rain = 0
KCR2 260904Z 16003KT 23/19 A299 RMK A01 T02280194  RH  081%=      5-min Rain = 0
KCR2 260905Z 12003KT 23/19 A299 RMK A01 T02270194  RH  081%=      5-min Rain = 0
KCR2 260906Z 11004KT 23/19 A299 RMK A01 T02270194  RH  081%=      5-min Rain = 0
KCR2 260907Z 15007KT 23/19 A299 RMK A01 T02270194  RH  082%=      5-min Rain = 0
KCR2 260908Z 16007KT 23/19 A299 RMK A01 T02270194  RH  082%=      5-min Rain = 0
KCR2 260909Z 15007KT 23/19 A299 RMK A01 T02260194  RH  082%=      5-min Rain = 0
KCR2 260910Z 16007KT 23/19 A299 RMK A01 T02270194  RH  082%=      5-min Rain = 0
KCR2 260911Z 13006KT 23/19 A299 RMK A01 T02270194  RH  082%=      5-min Rain = 0
KCR2 260912Z 14007KT 23/19 A299 RMK A01 T02260193  RH  082%=      5-min Rain = 0
KCR2 260913Z 09006KT 23/19 A299 RMK A01 T02270194  RH  082%=      5-min Rain = 0
KCR2 260914Z 09006KT 23/19 A299 RMK A01 T02260194  RH  082%=      5-min Rain = 0
KCR2 260915Z 12007KT 23/19 A299 RMK A01 T02260194  RH  082%=      5-min Rain = 0
KCR2 260916Z 10004KT 23/19 A299 RMK A01 T02260194  RH  082%=      5-min Rain = 0
KCR2 260917Z 10006KT 23/19 A299 RMK A01 T02260194  RH  082%=      5-min Rain = 0
KCR2 260918Z 10008KT 23/19 A299 RMK A01 T02260194  RH  082%=      5-min Rain = 0
KCR2 260919Z 12007KT 23/19 A299 RMK A01 T02260194  RH  082%=      5-min Rain = 0
KCR2 260920Z 13006KT 23/19 A299 RMK A01 T02270193  RH  081%=      5-min Rain = 0
KCR2 260921Z 11003KT 23/19 A2991 RMK A01 T02270193  RH  081%=      5-min Rain = 0
KCR2 260922Z 13007KT 23/19 A2991 RMK A01 T02270194  RH  081%=      5-min Rain = 0
KCR2 260923Z 13006KT 23/19 A2991 RMK A01 T02270194  RH  081%=      5-min Rain = 0
KCR2 260924Z 12004KT 23/19 A2991 RMK A01 T02270194  RH  081%=      5-min Rain = 0
KCR2 260925Z 14008KT 23/19 A2991 RMK A01 T02270194  RH  082%=      5-min Rain = 0
KCR2 260926Z 12008KT 23/19 A2991 RMK A01 T02270194  RH  081%=      5-min Rain = 0
KCR2 260927Z 13008KT 23/19 A2991 RMK A01 T02270194  RH  082%=      5-min Rain = 0
KCR2 260928Z 12007KT 23/19 A2991 RMK A01 T02270194  RH  082%=      5-min Rain = 0
KCR2 260929Z 12005KT 23/19 A2991 RMK A01 T02260194  RH  082%=      5-min Rain = 0
KCR2 260930Z 14007KT 23/19 A2991 RMK A01 T02260194  RH  082%=      5-min Rain = 0
KCR2 260931Z 11007KT 23/19 A2991 RMK A01 T02270194  RH  082%=      5-min Rain = 0
KCR2 260932Z 12006G11KT 23/19 A2991 RMK A01 T02260194  RH  082%=      5-min Rain = 0
KCR2 260933Z 12009KT 23/19 A2991 RMK A01 T02270194  RH  082%=      5-min Rain = 0
KCR2 260934Z 11007KT 23/19 A2991 RMK A01 T02270193  RH  081%=      5-min Rain = 0
KCR2 260935Z 13009KT 23/19 A2991 RMK A01 T02270193  RH  081%=      5-min Rain = 0
KCR2 260936Z 13011G16KT 23/19 A2991 RMK A01 T02270193  RH  081%=      5-min Rain = 0
KCR2 260937Z 13009G15KT 23/19 A2991 RMK A01 T02270193  RH  081%=      5-min Rain = 0
KCR2 260938Z 12009KT 23/19 A2991 RMK A01 T02280193  RH  081%=      5-min Rain = 0
KCR2 260939Z 13009KT 23/19 A2991 RMK A01 T02280194  RH  081%=      5-min Rain = 0
KCR2 260940Z 11008KT 23/19 A2991 RMK A01 T02280194  RH  081%=      5-min Rain = 0
KCR2 260941Z 12006KT 23/19 A2991 RMK A01 T02280194  RH  082%=      5-min Rain = 0
KCR2 260942Z 12007KT 23/20 A2991 RMK A01 T02270195  RH  082%=      5-min Rain = 0
KCR2 260943Z 13009KT 23/19 A2991 RMK A01 T02270194  RH  082%=      5-min Rain = 0
KCR2 260944Z 13011KT 23/19 A2991 RMK A01 T02260194  RH  082%=      5-min Rain = 0
KCR2 260945Z 13009KT 23/19 A2991 RMK A01 T02270193  RH  081%=      5-min Rain = 0
KCR2 260946Z 14011KT 23/19 A2991 RMK A01 T02270193  RH  081%=      5-min Rain = 0
KCR2 260947Z 13008KT 23/19 A2991 RMK A01 T02270193  RH  081%=      5-min Rain = 0
KCR2 260948Z 14011KT 23/19 A2991 RMK A01 T02270194  RH  081%=      5-min Rain = 0
KCR2 260949Z 15009KT 23/19 A2991 RMK A01 T02270194  RH  082%=      5-min Rain = 0
KCR2 260950Z 15008KT 23/19 A2991 RMK A01 T02270194  RH  082%=      5-min Rain = 0
KCR2 260951Z 15008KT 23/19 A2991 RMK A01 T02270194  RH  082%=      5-min Rain = 0
KCR2 260952Z 14008KT 23/19 A2991 RMK A01 T02260194  RH  082%=      5-min Rain = 0
KCR2 260953Z 16011KT 23/19 A2991 RMK A01 T02260194  RH  082%=      5-min Rain = 0
KCR2 260954Z 15011KT 23/19 A2991 RMK A01 T02260193  RH  082%=      5-min Rain = 0
KCR2 260955Z 13011KT 23/19 A2991 RMK A01 T02270194  RH  082%=      5-min Rain = 0
KCR2 260956Z 15013KT 23/19 A2991 RMK A01 T02270193  RH  081%=      5-min Rain = 0
KCR2 260957Z 16012KT 23/19 A2991 RMK A01 T02270193  RH  081%=      5-min Rain = 0
KCR2 260958Z 15010KT 23/19 A2991 RMK A01 T02270193  RH  081%=      5-min Rain = 0
KCR2 260959Z 17011KT 23/19 A2991 RMK A01 T02280193  RH  081%=      5-min Rain = 0
KCR2 261000Z 16011KT 23/19 A2991 RMK A01 T02280194  RH  081%=      5-min Rain = 0
KCR2 261001Z 16013G19KT 23/19 A2991 RMK A01 T02270194  RH  081%=      5-min Rain = 0
KCR2 261002Z 16012KT 23/19 A2991 RMK A01 T02270194  RH  082%=      5-min Rain = 0
KCR2 261003Z 15016KT 23/19 A2991 RMK A01 T02270194  RH  082%=      5-min Rain = 0
KCR2 261004Z 16017KT 23/19 A299 RMK A01 T02260193  RH  081%=      5-min Rain = 0
KCR2 261005Z 15016KT 23/19 A299 RMK A01 T02270193  RH  082%=      5-min Rain = 0
KCR2 261006Z 16015KT 23/19 A299 RMK A01 T02260193  RH  081%=      5-min Rain = 0
KCR2 261007Z 16017KT 23/19 A299 RMK A01 T02270193  RH  081%=      5-min Rain = 0
KCR2 261008Z 16017KT 23/19 A299 RMK A01 T02260193  RH  081%=      5-min Rain = 0
KCR2 261009Z 16019KT 23/19 A299 RMK A01 T02270193  RH  081%=      5-min Rain = 0
KCR2 261010Z 16014G19KT 23/19 A2991 RMK A01 T02260193  RH  081%=      5-min Rain = 0
KCR2 261011Z 17016KT 23/19 A2991 RMK A01 T02270193  RH  081%=      5-min Rain = 0
KCR2 261012Z 17015KT 23/19 A2991 RMK A01 T02260192  RH  081%=      5-min Rain = 0
KCR2 261013Z 17015KT 23/19 A2991 RMK A01 T02270192  RH  081%=      5-min Rain = 0
KCR2 261014Z 16014KT 23/19 A2991 RMK A01 T02270192  RH  081%=      5-min Rain = 0
KCR2 261015Z 17013KT 23/19 A2991 RMK A01 T02270193  RH  081%=      5-min Rain = 0
KCR2 261016Z 17014KT 23/19 A2991 RMK A01 T02260193  RH  082%=      5-min Rain = 0
KCR2 261017Z 17013KT 23/19 A2991 RMK A01 T02260193  RH  082%=      5-min Rain = 0
KCR2 261018Z 17012KT 23/19 A2991 RMK A01 T02260193  RH  082%=      5-min Rain = 0
KCR2 261019Z 17015KT 23/19 A2991 RMK A01 T02260193  RH  082%=      5-min Rain = 0
KCR2 261020Z 18016KT 23/19 A2991 RMK A01 T02260192  RH  081%=      5-min Rain = 0
KCR2 261021Z 17016KT 23/19 A2991 RMK A01 T02260192  RH  081%=      5-min Rain = 0
KCR2 261022Z 18017G22KT 23/19 A2991 RMK A01 T02260192  RH  081%=      5-min Rain = 0
KCR2 261023Z 17015KT 23/19 A2991 RMK A01 T02260192  RH  081%=      5-min Rain = 0
KCR2 261024Z 17014KT 23/19 A2991 RMK A01 T02260192  RH  081%=      5-min Rain = 0
KCR2 261025Z 17016KT 23/19 A2991 RMK A01 T02260193  RH  081%=      5-min Rain = 0
KCR2 261026Z 17016KT 23/19 A2991 RMK A01 T02250192  RH  082%=      5-min Rain = 0
KCR2 261027Z 18015KT 23/19 A2991 RMK A01 T02260193  RH  082%=      5-min Rain = 0
KCR2 261028Z 18014KT 23/19 A2991 RMK A01 T02250193  RH  082%=      5-min Rain = 0
KCR2 261029Z 17015KT 22/19 A2991 RMK A01 T02240193  RH  082%=      5-min Rain = 0
KCR2 261030Z 17014KT 22/19 A2991 RMK A01 T02240193  RH  082%=      5-min Rain = 0
KCR2 261031Z 18016KT 22/19 A2991 RMK A01 T02240193  RH  082%=      5-min Rain = 0
KCR2 261032Z 18018KT 22/19 A2991 RMK A01 T02240193  RH  082%=      5-min Rain = 0
KCR2 261033Z 18017KT 22/19 A2991 RMK A01 T02240192  RH  082%=      5-min Rain = 0
KCR2 261034Z 19014G19KT 23/19 A2992 RMK A01 T02250192  RH  082%=      5-min Rain = 0
KCR2 261035Z 19015KT 23/19 A2992 RMK A01 T02250193  RH  082%=      5-min Rain = 0
KCR2 261036Z 19013KT 23/19 A2992 RMK A01 T02250192  RH  082%=      5-min Rain = 0
KCR2 261037Z 19013KT 23/19 A2992 RMK A01 T02260193  RH  082%=      5-min Rain = 0
KCR2 261038Z 19013KT 23/19 A2992 RMK A01 T02250193  RH  082%=      5-min Rain = 0
KCR2 261039Z 18016KT 23/19 A2992 RMK A01 T02250193  RH  082%=      5-min Rain = 0
KCR2 261040Z 19014KT 23/19 A2993 RMK A01 T02260193  RH  082%=      5-min Rain = 0
KCR2 261041Z 20015KT 23/19 A2993 RMK A01 T02260193  RH  082%=      5-min Rain = 0
KCR2 261042Z 20014KT 23/19 A2993 RMK A01 T02260193  RH  081%=      5-min Rain = 0
KCR2 261043Z 18014KT 23/19 A2993 RMK A01 T02260193  RH  082%=      5-min Rain = 0
KCR2 261044Z 18014KT 23/19 A2993 RMK A01 T02260193  RH  082%=      5-min Rain = 0
KCR2 261045Z 18012KT 23/19 A2993 RMK A01 T02260193  RH  082%=      5-min Rain = 0
KCR2 261046Z 18013KT 23/19 A2993 RMK A01 T02260193  RH  082%=      5-min Rain = 0
KCR2 261047Z 18015KT 23/19 A2993 RMK A01 T02260193  RH  082%=      5-min Rain = 0
KCR2 261048Z 18014KT 23/19 A2993 RMK A01 T02260193  RH  082%=      5-min Rain = 0
KCR2 261049Z 18016KT 23/19 A2993 RMK A01 T02260193  RH  082%=      5-min Rain = 0
KCR2 261050Z 18016KT 23/19 A2993 RMK A01 T02260192  RH  081%=      5-min Rain = 0
KCR2 261051Z 17013KT 23/19 A2993 RMK A01 T02260193  RH  082%=      5-min Rain = 0
KCR2 261052Z 17015KT 23/19 A2993 RMK A01 T02260193  RH  082%=      5-min Rain = 0
KCR2 261053Z 18016KT 23/19 A2992 RMK A01 T02260193  RH  082%=      5-min Rain = 0
KCR2 261054Z 18014KT 23/19 A2993 RMK A01 T02250193  RH  082%=      5-min Rain = 0
KCR2 261055Z 17014KT 23/19 A2993 RMK A01 T02260193  RH  082%=      5-min Rain = 0
KCR2 261056Z 18013KT 23/19 A2993 RMK A01 T02260194  RH  082%=      5-min Rain = 0
KCR2 261057Z 18015KT 23/19 A2993 RMK A01 T02250193  RH  082%=      5-min Rain = 0
KCR2 261058Z 17013KT 23/19 A2993 RMK A01 T02250193  RH  082%=      5-min Rain = 0
KCR2 261059Z 18013KT 23/19 A2993 RMK A01 T02250193  RH  082%=      5-min Rain = 0
KCR2 261100Z 17014KT 23/19 A2993 RMK A01 T02250193  RH  082%=      5-min Rain = 0
KCR2 261101Z 18014KT 23/19 A2993 RMK A01 T02250193  RH  082%=      5-min Rain = 0
KCR2 261102Z 18012KT 23/19 A2994 RMK A01 T02250193  RH  082%=      5-min Rain = 0
KCR2 261103Z 18011KT 23/19 A2994 RMK A01 T02250193  RH  082%=      5-min Rain = 0
KCR2 261104Z 18008KT 23/19 A2994 RMK A01 T02250193  RH  082%=      5-min Rain = 0
KCR2 261105Z 19011KT 23/19 A2994 RMK A01 T02250194  RH  082%=      5-min Rain = 0
KCR2 261106Z 19010KT 23/19 A2994 RMK A01 T02250194  RH  082%=      5-min Rain = 0
KCR2 261107Z 18009KT 23/19 A2994 RMK A01 T02250193  RH  082%=      5-min Rain = 0
KCR2 261108Z 18009KT 23/19 A2994 RMK A01 T02250194  RH  082%=      5-min Rain = 0
KCR2 261109Z 19007KT 23/19 A2994 RMK A01 T02250194  RH  083%=      5-min Rain = 0
KCR2 261110Z 17008KT 23/19 A2994 RMK A01 T02250194  RH  083%=      5-min Rain = 0
KCR2 261111Z 17010KT 22/19 A2994 RMK A01 T02240194  RH  083%=      5-min Rain = 0
KCR2 261112Z 18012KT 22/19 A2994 RMK A01 T02240193  RH  082%=      5-min Rain = 0
KCR2 261113Z 18009KT 23/19 A2994 RMK A01 T02250193  RH  082%=      5-min Rain = 0
KCR2 261114Z 17010KT 23/20 A2994 RMK A01 T02250195  RH  083%=      5-min Rain = 0
KCR2 261115Z 17009KT 23/19 A2994 RMK A01 T02250194  RH  083%=      5-min Rain = 0
KCR2 261116Z 17007KT 23/19 A2994 RMK A01 T02250194  RH  083%=      5-min Rain = 0
KCR2 261117Z 18009KT 22/20 A2994 RMK A01 T02240195  RH  083%=      5-min Rain = 0
KCR2 261118Z 17009KT 22/19 A2994 RMK A01 T02240194  RH  083%=      5-min Rain = 0
KCR2 261119Z 17009KT 22/19 A2994 RMK A01 T02240194  RH  083%=      5-min Rain = 0
KCR2 261120Z 18011KT 22/19 A2994 RMK A01 T02240194  RH  083%=      5-min Rain = 0
KCR2 261121Z 17010KT 22/19 A2994 RMK A01 T02240194  RH  083%=      5-min Rain = 0
KCR2 261122Z 18010KT 22/19 A2994 RMK A01 T02240194  RH  083%=      5-min Rain = 0
KCR2 261123Z 18009KT 22/19 A2994 RMK A01 T02240194  RH  083%=      5-min Rain = 0
KCR2 261124Z 18010KT 22/19 A2994 RMK A01 T02240194  RH  083%=      5-min Rain = 0
KCR2 261125Z 18009KT 22/19 A2994 RMK A01 T02240194  RH  083%=      5-min Rain = 0
KCR2 261126Z 18009KT 22/20 A2994 RMK A01 T02240195  RH  083%=      5-min Rain = 0
KCR2 261127Z 17008KT 22/19 A2994 RMK A01 T02240194  RH  083%=      5-min Rain = 0
KCR2 261128Z 17010KT 22/20 A2994 RMK A01 T02240195  RH  083%=      5-min Rain = 0
KCR2 261129Z 17009KT 22/19 A2994 RMK A01 T02240194  RH  083%=      5-min Rain = 0
KCR2 261130Z 17009KT 22/20 A2994 RMK A01 T02240195  RH  084%=      5-min Rain = 0
KCR2 261131Z 17011KT 22/20 A2994 RMK A01 T02240195  RH  084%=      5-min Rain = 0
KCR2 261132Z 18010KT 22/20 A2994 RMK A01 T02240195  RH  083%=      5-min Rain = 0
KCR2 261133Z 18008KT 22/20 A2994 RMK A01 T02240195  RH  084%=      5-min Rain = 0
KCR2 261134Z 18009KT 22/20 A2994 RMK A01 T02240195  RH  084%=      5-min Rain = 0
KCR2 261135Z 17010KT 22/20 A2994 RMK A01 T02240195  RH  084%=      5-min Rain = 0
KCR2 261136Z 18009KT 22/20 A2994 RMK A01 T02240195  RH  084%=      5-min Rain = 0
KCR2 261137Z 17010KT 22/20 A2994 RMK A01 T02240195  RH  084%=      5-min Rain = 0
KCR2 261138Z 18011KT 22/20 A2994 RMK A01 T02240195  RH  084%=      5-min Rain = 0
KCR2 261139Z 18008KT 22/20 A2994 RMK A01 T02240195  RH  084%=      5-min Rain = 0
KCR2 261140Z 18009KT 22/20 A2994 RMK A01 T02240196  RH  084%=      5-min Rain = 0
KCR2 261141Z 17008KT 22/20 A2994 RMK A01 T02240196  RH  084%=      5-min Rain = 0
KCR2 261142Z 18008KT 22/20 A2994 RMK A01 T02230196  RH  085%=      5-min Rain = 0
KCR2 261143Z 17008KT 22/20 A2994 RMK A01 T02230196  RH  085%=      5-min Rain = 0
KCR2 261144Z 18010KT 22/20 A2994 RMK A01 T02230195  RH  085%=      5-min Rain = 0
KCR2 261145Z 18010KT 22/20 A2994 RMK A01 T02230195  RH  084%=      5-min Rain = 0
KCR2 261146Z 18009KT 22/20 A2994 RMK A01 T02230195  RH  084%=      5-min Rain = 0
KCR2 261147Z 17010KT 22/20 A2994 RMK A01 T02230196  RH  084%=      5-min Rain = 0
KCR2 261148Z 17011KT 22/20 A2994 RMK A01 T02230196  RH  084%=      5-min Rain = 0
KCR2 261149Z 17011KT 22/20 A2994 RMK A01 T02230195  RH  084%=      5-min Rain = 0
KCR2 261150Z 17012KT 22/20 A2994 RMK A01 T02230195  RH  084%=      5-min Rain = 0
KCR2 261151Z 18013KT 22/20 A2994 RMK A01 T02230195  RH  084%=      5-min Rain = 0
KCR2 261152Z 17013KT 22/20 A2994 RMK A01 T02240195  RH  084%=      5-min Rain = 0
KCR2 261153Z 17012KT 22/20 A2994 RMK A01 T02240195  RH  084%=      5-min Rain = 0
KCR2 261154Z 17015KT 22/20 A2994 RMK A01 T02240195  RH  084%=      5-min Rain = 0
KCR2 261155Z 18013KT 22/20 A2994 RMK A01 T02240195  RH  083%=      5-min Rain = 0
KCR2 261156Z 17013KT 22/20 A2994 RMK A01 T02240195  RH  084%=      5-min Rain = 0
KCR2 261157Z 17011KT 22/20 A2994 RMK A01 T02240196  RH  084%=      5-min Rain = 0
KCR2 261158Z 17010KT 22/20 A2994 RMK A01 T02240196  RH  084%=      5-min Rain = 0
KCR2 261159Z 17011KT 22/20 A2994 RMK A01 T02240196  RH  084%=      5-min Rain = 0
KCR2 261200Z 17011KT 22/20 A2994 RMK A01 T02240196  RH  084%=      5-min Rain = 0
KCR2 261201Z 17011KT 22/20 A2994 RMK A01 T02240195  RH  084%=      5-min Rain = 0
KCR2 261202Z 17011KT 22/20 A2994 RMK A01 T02240196  RH  084%=      5-min Rain = 0
KCR2 261203Z 17014KT 22/20 A2994 RMK A01 T02240195  RH  084%=      5-min Rain = 0
KCR2 261204Z 17013KT 22/20 A2994 RMK A01 T02240195  RH  084%=      5-min Rain = 0
KCR2 261205Z 18012KT 22/20 A2994 RMK A01 T02240195  RH  084%=      5-min Rain = 0
KCR2 261206Z 18010KT 22/20 A2995 RMK A01 T02240195  RH  084%=      5-min Rain = 0
KCR2 261207Z 18009KT 22/20 A2995 RMK A01 T02240196  RH  084%=      5-min Rain = 0
KCR2 261208Z 18008KT 22/20 A2995 RMK A01 T02240196  RH  084%=      5-min Rain = 0
KCR2 261209Z 18007KT 22/20 A2995 RMK A01 T02240196  RH  084%=      5-min Rain = 0
KCR2 261210Z 18007KT 22/20 A2995 RMK A01 T02240197  RH  085%=      5-min Rain = 0
KCR2 261211Z 17007KT 22/20 A2995 RMK A01 T02230196  RH  085%=      5-min Rain = 0
KCR2 261212Z 17010KT 22/20 A2995 RMK A01 T02230196  RH  085%=      5-min Rain = 0
KCR2 261213Z 17011KT 22/20 A2995 RMK A01 T02230196  RH  085%=      5-min Rain = 0
KCR2 261214Z 17009KT 22/20 A2995 RMK A01 T02230196  RH  085%=      5-min Rain = 0
KCR2 261215Z 17011KT 22/20 A2995 RMK A01 T02230196  RH  085%=      5-min Rain = 0
KCR2 261216Z 17009KT 22/20 A2995 RMK A01 T02230196  RH  085%=      5-min Rain = 0
KCR2 261217Z 17011KT 22/20 A2995 RMK A01 T02230196  RH  084%=      5-min Rain = 0
KCR2 261218Z 17010KT 22/20 A2995 RMK A01 T02230196  RH  085%=      5-min Rain = 0
KCR2 261219Z 18010KT 22/20 A2995 RMK A01 T02230196  RH  084%=      5-min Rain = 0
KCR2 261220Z 18011KT 22/20 A2995 RMK A01 T02230196  RH  084%=      5-min Rain = 0
KCR2 261221Z 17009KT 22/20 A2995 RMK A01 T02230196  RH  084%=      5-min Rain = 0
KCR2 261222Z 18012KT 22/20 A2995 RMK A01 T02240196  RH  084%=      5-min Rain = 0
KCR2 261223Z 17010KT 22/20 A2995 RMK A01 T02230195  RH  084%=      5-min Rain = 0
KCR2 261224Z 17010KT 22/20 A2995 RMK A01 T02240196  RH  084%=      5-min Rain = 0
KCR2 261225Z 17011KT 22/20 A2995 RMK A01 T02240195  RH  084%=      5-min Rain = 0
KCR2 261226Z 17013KT 22/20 A2995 RMK A01 T02240195  RH  084%=      5-min Rain = 0
KCR2 261227Z 16012KT 22/20 A2995 RMK A01 T02240196  RH  084%=      5-min Rain = 0
KCR2 261228Z 17013KT 22/20 A2995 RMK A01 T02240196  RH  084%=      5-min Rain = 0
KCR2 261229Z 17012KT 22/20 A2995 RMK A01 T02240195  RH  084%=      5-min Rain = 0
KCR2 261230Z 16011KT 22/20 A2995 RMK A01 T02240196  RH  084%=      5-min Rain = 0
KCR2 261231Z 16011KT 22/20 A2995 RMK A01 T02240196  RH  084%=      5-min Rain = 0
KCR2 261232Z 16011KT 22/20 A2995 RMK A01 T02240196  RH  084%=      5-min Rain = 0
KCR2 261233Z 16012KT 22/20 A2995 RMK A01 T02240195  RH  084%=      5-min Rain = 0
KCR2 261234Z 15012KT 22/20 A2994 RMK A01 T02240195  RH  084%=      5-min Rain = 0
KCR2 261235Z 16011KT 22/20 A2994 RMK A01 T02240196  RH  084%=      5-min Rain = 0
KCR2 261236Z 15012KT 22/20 A2994 RMK A01 T02240195  RH  084%=      5-min Rain = 0
KCR2 261237Z 16012KT 22/20 A2994 RMK A01 T02240195  RH  084%=      5-min Rain = 0
KCR2 261238Z 16013KT 22/20 A2994 RMK A01 T02240195  RH  084%=      5-min Rain = 0
KCR2 261239Z 16012KT 22/20 A2994 RMK A01 T02240195  RH  083%=      5-min Rain = 0
KCR2 261240Z 16010KT 23/20 A2994 RMK A01 T02250196  RH  084%=      5-min Rain = 0
KCR2 261241Z 16014KT 23/20 A2994 RMK A01 T02250196  RH  084%=      5-min Rain = 0
KCR2 261242Z 16014KT 22/19 A2994 RMK A01 T02240194  RH  083%=      5-min Rain = 0
KCR2 261243Z 16014KT 22/19 A2994 RMK A01 T02240194  RH  083%=      5-min Rain = 0
KCR2 261244Z 16014KT 23/19 A2994 RMK A01 T02250194  RH  083%=      5-min Rain = 0
KCR2 261245Z 17016KT 23/19 A2994 RMK A01 T02250194  RH  083%=      5-min Rain = 0
KCR2 261246Z 17017KT 23/19 A2994 RMK A01 T02250194  RH  083%=      5-min Rain = 0
KCR2 261247Z 16014G20KT 23/19 A2994 RMK A01 T02250194  RH  083%=      5-min Rain = 0
KCR2 261248Z 16015KT 23/20 A2995 RMK A01 T02250195  RH  083%=      5-min Rain = 0
KCR2 261249Z 16014KT 23/20 A2995 RMK A01 T02250195  RH  083%=      5-min Rain = 0
KCR2 261250Z 17013KT 23/20 A2995 RMK A01 T02250195  RH  083%=      5-min Rain = 0
KCR2 261251Z 16012KT 23/20 A2995 RMK A01 T02250196  RH  083%=      5-min Rain = 0
KCR2 261252Z 17014KT 23/20 A2995 RMK A01 T02250195  RH  083%=      5-min Rain = 0
KCR2 261253Z 17013KT 23/20 A2995 RMK A01 T02250195  RH  083%=      5-min Rain = 0
KCR2 261254Z 16012KT 23/20 A2995 RMK A01 T02250195  RH  083%=      5-min Rain = 0
KCR2 261255Z 16016G22KT 23/20 A2995 RMK A01 T02250195  RH  083%=      5-min Rain = 0
KCR2 261256Z 16017KT 23/19 A2995 RMK A01 T02250194  RH  083%=      5-min Rain = 0
KCR2 261257Z 17016KT 23/19 A2995 RMK A01 T02250194  RH  082%=      5-min Rain = 0
KCR2 261258Z 17015KT 23/19 A2995 RMK A01 T02250194  RH  082%=      5-min Rain = 0
KCR2 261259Z 16016KT 23/19 A2995 RMK A01 T02250194  RH  082%=      5-min Rain = 0
KCR2 261300Z 17017KT 23/19 A2995 RMK A01 T02250194  RH  082%=      5-min Rain = 0
KCR2 261301Z 17015KT 23/19 A2995 RMK A01 T02260194  RH  082%=      5-min Rain = 0
KCR2 261302Z 16016KT 23/19 A2995 RMK A01 T02260194  RH  083%=      5-min Rain = 0
KCR2 261303Z 17016G21KT 23/19 A2995 RMK A01 T02260194  RH  082%=      5-min Rain = 0
KCR2 261304Z 16014KT 23/19 A2995 RMK A01 T02260194  RH  082%=      5-min Rain = 0
KCR2 261305Z 16015KT 23/20 A2995 RMK A01 T02260195  RH  083%=      5-min Rain = 0
KCR2 261306Z 17018KT 23/19 A2995 RMK A01 T02260194  RH  082%=      5-min Rain = 0
KCR2 261307Z 16018KT 23/19 A2995 RMK A01 T02260193  RH  082%=      5-min Rain = 0
KCR2 261308Z 17016KT 23/19 A2995 RMK A01 T02260194  RH  082%=      5-min Rain = 0
KCR2 261309Z 16015KT 23/20 A2995 RMK A01 T02260195  RH  083%=      5-min Rain = 0
KCR2 261310Z 16017KT 23/19 A2995 RMK A01 T02260194  RH  082%=      5-min Rain = 0
KCR2 261311Z 17015KT 23/20 A2996 RMK A01 T02260195  RH  082%=      5-min Rain = 0
KCR2 261312Z 17015KT 23/20 A2996 RMK A01 T02260195  RH  083%=      5-min Rain = 0
KCR2 261313Z 17014KT 23/20 A2995 RMK A01 T02260195  RH  083%=      5-min Rain = 0
KCR2 261314Z 17012KT 23/20 A2996 RMK A01 T02260196  RH  083%=      5-min Rain = 0
KCR2 261315Z 17014KT 23/20 A2996 RMK A01 T02260196  RH  083%=      5-min Rain = 0
KCR2 261316Z 18016KT 23/20 A2996 RMK A01 T02260195  RH  083%=      5-min Rain = 0
KCR2 261317Z 18014KT 23/20 A2996 RMK A01 T02260195  RH  082%=      5-min Rain = 0
KCR2 261318Z 17013KT 23/20 A2996 RMK A01 T02260196  RH  083%=      5-min Rain = 0
KCR2 261319Z 17015KT 23/20 A2996 RMK A01 T02260195  RH  083%=      5-min Rain = 0
KCR2 261320Z 17013KT 23/20 A2996 RMK A01 T02260196  RH  083%=      5-min Rain = 0
KCR2 261321Z 17014KT 23/20 A2996 RMK A01 T02260196  RH  083%=      5-min Rain = 0
KCR2 261322Z 18013KT 23/20 A2996 RMK A01 T02260195  RH  082%=      5-min Rain = 0
KCR2 261323Z 18013KT 23/20 A2996 RMK A01 T02260196  RH  083%=      5-min Rain = 0
KCR2 261324Z 18014KT 23/20 A2996 RMK A01 T02270196  RH  083%=      5-min Rain = 0
KCR2 261325Z 18014KT 23/20 A2996 RMK A01 T02260196  RH  083%=      5-min Rain = 0
KCR2 261326Z 18014KT 23/20 A2996 RMK A01 T02260196  RH  083%=      5-min Rain = 0
KCR2 261327Z 18015KT 23/20 A2997 RMK A01 T02270196  RH  083%=      5-min Rain = 0
KCR2 261328Z 18015KT 23/20 A2997 RMK A01 T02260195  RH  082%=      5-min Rain = 0
KCR2 261329Z 17014KT 23/20 A2997 RMK A01 T02270195  RH  083%=      5-min Rain = 0
KCR2 261330Z 18013KT 23/20 A2997 RMK A01 T02270195  RH  082%=      5-min Rain = 0
KCR2 261331Z 18010KT 23/20 A2997 RMK A01 T02260196  RH  083%=      5-min Rain = 0
KCR2 261332Z 18011KT 23/20 A2997 RMK A01 T02270197  RH  083%=      5-min Rain = 0
KCR2 261333Z 17009KT 23/20 A2997 RMK A01 T02270197  RH  083%=      5-min Rain = 0
KCR2 261334Z 17012KT 23/20 A2997 RMK A01 T02270197  RH  083%=      5-min Rain = 0
KCR2 261335Z 18013KT 23/20 A2997 RMK A01 T02270196  RH  082%=      5-min Rain = 0
KCR2 261336Z 18013KT 23/20 A2997 RMK A01 T02270195  RH  082%=      5-min Rain = 0
KCR2 261337Z 16014KT 23/20 A2997 RMK A01 T02270195  RH  082%=      5-min Rain = 0
KCR2 261338Z 17012KT 23/20 A2997 RMK A01 T02270195  RH  082%=      5-min Rain = 0
KCR2 261339Z 17012KT 23/20 A2997 RMK A01 T02270196  RH  083%=      5-min Rain = 0
KCR2 261340Z 18014KT 23/20 A2997 RMK A01 T02270195  RH  082%=      5-min Rain = 0
KCR2 261341Z 18012KT 23/20 A2997 RMK A01 T02270195  RH  082%=      5-min Rain = 0
KCR2 261342Z 17014KT 23/20 A2998 RMK A01 T02270195  RH  082%=      5-min Rain = 0
KCR2 261343Z 18013KT 23/20 A2998 RMK A01 T02270195  RH  082%=      5-min Rain = 0
KCR2 261344Z 17012KT 23/20 A2998 RMK A01 T02270195  RH  082%=      5-min Rain = 0
KCR2 261345Z 17013KT 23/20 A2998 RMK A01 T02270195  RH  082%=      5-min Rain = 0
KCR2 261346Z 17013KT 23/20 A2998 RMK A01 T02270196  RH  083%=      5-min Rain = 0
KCR2 261347Z 17013KT 23/20 A2998 RMK A01 T02270195  RH  082%=      5-min Rain = 0
KCR2 261348Z 18012KT 23/20 A2998 RMK A01 T02270195  RH  082%=      5-min Rain = 0
KCR2 261349Z 17012KT 23/20 A2998 RMK A01 T02270195  RH  082%=      5-min Rain = 0
KCR2 261350Z 17011KT 23/20 A2998 RMK A01 T02270195  RH  082%=      5-min Rain = 0
KCR2 261351Z 17013KT 23/20 A2998 RMK A01 T02270196  RH  083%=      5-min Rain = 0
KCR2 261352Z 17014KT 23/20 A2998 RMK A01 T02270195  RH  082%=      5-min Rain = 0
KCR2 261353Z 17014KT 23/20 A2998 RMK A01 T02270195  RH  082%=      5-min Rain = 0
KCR2 261354Z 17014KT 23/19 A2998 RMK A01 T02270194  RH  082%=      5-min Rain = 0
KCR2 261355Z 17014KT 23/20 A2998 RMK A01 T02270195  RH  082%=      5-min Rain = 0
KCR2 261356Z 17014KT 23/20 A2998 RMK A01 T02270195  RH  082%=      5-min Rain = 0
KCR2 261357Z 17013KT 23/20 A2998 RMK A01 T02270195  RH  082%=      5-min Rain = 0
KCR2 261358Z 17014KT 23/19 A2998 RMK A01 T02270194  RH  082%=      5-min Rain = 0
KCR2 261359Z 17014KT 23/19 A2998 RMK A01 T02270194  RH  082%=      5-min Rain = 0
KCR2 261400Z 17013KT 23/20 A2998 RMK A01 T02270195  RH  082%=      5-min Rain = 0
KCR2 261401Z 16013KT 23/20 A2998 RMK A01 T02270195  RH  082%=      5-min Rain = 0
KCR2 261402Z 17011KT 23/19 A2998 RMK A01 T02270194  RH  082%=      5-min Rain = 0
KCR2 261403Z 16012KT 23/20 A2998 RMK A01 T02270195  RH  082%=      5-min Rain = 0
KCR2 261404Z 17012KT 23/20 A2998 RMK A01 T02270195  RH  082%=      5-min Rain = 0
KCR2 261405Z 16012G17KT 23/20 A2998 RMK A01 T02270196  RH  082%=      5-min Rain = 0
KCR2 261406Z 17012KT 23/19 A2998 RMK A01 T02270194  RH  081%=      5-min Rain = 0
KCR2 261407Z 17012KT 23/20 A2998 RMK A01 T02270195  RH  082%=      5-min Rain = 0
KCR2 261408Z 17012KT 23/20 A2998 RMK A01 T02280195  RH  082%=      5-min Rain = 0
KCR2 261409Z 17013KT 23/20 A2998 RMK A01 T02280195  RH  082%=      5-min Rain = 0
KCR2 261410Z 16013KT 23/20 A2998 RMK A01 T02280195  RH  082%=      5-min Rain = 0
KCR2 261411Z 16011KT 23/20 A2998 RMK A01 T02280195  RH  082%=      5-min Rain = 0
KCR2 261412Z 17014KT 23/20 A2998 RMK A01 T02280195  RH  082%=      5-min Rain = 0
KCR2 261413Z 17014KT 23/20 A2998 RMK A01 T02280195  RH  081%=      5-min Rain = 0
KCR2 261414Z 17012KT 23/20 A2998 RMK A01 T02280195  RH  082%=      5-min Rain = 0
KCR2 261415Z 17010KT 23/20 A2998 RMK A01 T02280195  RH  082%=      5-min Rain = 0
KCR2 261416Z 17013KT 23/20 A2998 RMK A01 T02280196  RH  082%=      5-min Rain = 0
KCR2 261417Z 17010KT 23/20 A2998 RMK A01 T02290196  RH  082%=      5-min Rain = 0
KCR2 261418Z 16010KT 23/20 A2998 RMK A01 T02290196  RH  082%=      5-min Rain = 0
KCR2 261419Z 17013KT 23/20 A2998 RMK A01 T02290195  RH  081%=      5-min Rain = 0
KCR2 261420Z 18016KT 23/19 A2998 RMK A01 T02290194  RH  081%=      5-min Rain = 0
KCR2 261421Z 17013KT 23/20 A2998 RMK A01 T02280195  RH  081%=      5-min Rain = 0
KCR2 261422Z 18016KT 23/20 A2998 RMK A01 T02290195  RH  081%=      5-min Rain = 0
KCR2 261423Z 17016KT 23/19 A2998 RMK A01 T02290194  RH  081%=      5-min Rain = 0
KCR2 261424Z 18015KT 23/19 A2998 RMK A01 T02280194  RH  081%=      5-min Rain = 0
KCR2 261425Z 18015KT 23/19 A2998 RMK A01 T02280194  RH  081%=      5-min Rain = 0
KCR2 261426Z 18014KT 23/20 A2998 RMK A01 T02280195  RH  081%=      5-min Rain = 0
KCR2 261427Z 18014KT 23/20 A2998 RMK A01 T02280195  RH  081%=      5-min Rain = 0
KCR2 261428Z 18017KT 23/19 A2998 RMK A01 T02280194  RH  081%=      5-min Rain = 0
KCR2 261429Z 18013KT 23/20 A2999 RMK A01 T02280195  RH  082%=      5-min Rain = 0
KCR2 261430Z 18014KT 23/20 A2998 RMK A01 T02280195  RH  081%=      5-min Rain = 0
KCR2 261431Z 18013KT 23/20 A2999 RMK A01 T02280195  RH  082%=      5-min Rain = 0
KCR2 261432Z 17012KT 23/20 A2998 RMK A01 T02290196  RH  082%=      5-min Rain = 0
KCR2 261433Z 17014KT 23/20 A2998 RMK A01 T02290196  RH  081%=      5-min Rain = 0
KCR2 261434Z 18014KT 23/20 A2998 RMK A01 T02290196  RH  081%=      5-min Rain = 0
KCR2 261435Z 18013KT 23/20 A2998 RMK A01 T02300196  RH  081%=      5-min Rain = 0
KCR2 261436Z 18010KT 23/20 A2999 RMK A01 T02300197  RH  082%=      5-min Rain = 0
KCR2 261437Z 18009KT 23/20 A2999 RMK A01 T02310199  RH  082%=      5-min Rain = 0
KCR2 261438Z 18012KT 23/20 A2999 RMK A01 T02310197  RH  081%=      5-min Rain = 0
KCR2 261439Z 17015KT 23/20 A2999 RMK A01 T02320197  RH  081%=      5-min Rain = 0
KCR2 261440Z 16016KT 23/20 A2999 RMK A01 T02310196  RH  080%=      5-min Rain = 0
KCR2 261441Z 17013KT 23/20 A2999 RMK A01 T02310196  RH  080%=      5-min Rain = 0
KCR2 261442Z 17014KT 23/20 A2999 RMK A01 T02310197  RH  081%=      5-min Rain = 0
KCR2 261443Z 17013KT 23/20 A2999 RMK A01 T02310196  RH  081%=      5-min Rain = 0
KCR2 261444Z 16015KT 23/20 A2999 RMK A01 T02310196  RH  081%=      5-min Rain = 0
KCR2 261445Z 17017KT 23/20 A2999 RMK A01 T02310195  RH  080%=      5-min Rain = 0
KCR2 261446Z 17017KT 23/20 A2999 RMK A01 T02310195  RH  080%=      5-min Rain = 0
KCR2 261447Z 18015KT 23/19 A2999 RMK A01 T02310194  RH  080%=      5-min Rain = 0
KCR2 261448Z 17012KT 23/20 A2999 RMK A01 T02310195  RH  081%=      5-min Rain = 0
KCR2 261449Z 17015KT 23/20 A2999 RMK A01 T02310196  RH  081%=      5-min Rain = 0
KCR2 261450Z 18014KT 23/19 A2999 RMK A01 T02300194  RH  080%=      5-min Rain = 0
KCR2 261451Z 17013KT 23/20 A2999 RMK A01 T02310195  RH  081%=      5-min Rain = 0
KCR2 261452Z 16014KT 23/20 A2999 RMK A01 T02310196  RH  081%=      5-min Rain = 0
KCR2 261453Z 17015KT 23/20 A2999 RMK A01 T02310195  RH  080%=      5-min Rain = 0
KCR2 261454Z 17013KT 23/20 A2999 RMK A01 T02300195  RH  080%=      5-min Rain = 0
KCR2 261455Z 16014KT 23/20 A2999 RMK A01 T02300195  RH  081%=      5-min Rain = 0
KCR2 261456Z 16015KT 23/20 A2998 RMK A01 T02300195  RH  081%=      5-min Rain = 0
KCR2 261457Z 17016KT 23/20 A2998 RMK A01 T02300195  RH  081%=      5-min Rain = 0
KCR2 261458Z 17013KT 23/20 A2999 RMK A01 T02300195  RH  081%=      5-min Rain = 0
KCR2 261459Z 17014KT 23/20 A2999 RMK A01 T02300196  RH  081%=      5-min Rain = 0
KCR2 261500Z 17013KT 23/20 A2999 RMK A01 T02300196  RH  081%=      5-min Rain = 0
KCR2 261501Z 17013G18KT 23/20 A2999 RMK A01 T02300196  RH  081%=      5-min Rain = 0
KCR2 261502Z 17014KT 23/20 A2998 RMK A01 T02310195  RH  080%=      5-min Rain = 0
KCR2 261503Z 17015KT 23/20 A2998 RMK A01 T02310196  RH  081%=      5-min Rain = 0
KCR2 261504Z 16014KT 23/20 A2998 RMK A01 T02310195  RH  080%=      5-min Rain = 0
KCR2 261505Z 16012KT 23/20 A2998 RMK A01 T02310196  RH  081%=      5-min Rain = 0
KCR2 261506Z 17016KT 23/20 A2998 RMK A01 T02310195  RH  081%=      5-min Rain = 0
KCR2 261507Z 16018KT 23/20 A2998 RMK A01 T02310195  RH  080%=      5-min Rain = 0
KCR2 261508Z 16019KT 23/19 A2998 RMK A01 T02300194  RH  080%=      5-min Rain = 0
KCR2 261509Z 17016KT 23/20 A2998 RMK A01 T02300195  RH  081%=      5-min Rain = 0
KCR2 261510Z 17014KT 23/20 A2998 RMK A01 T02300195  RH  081%=      5-min Rain = 0
KCR2 261511Z 16016KT 23/20 A2998 RMK A01 T02300195  RH  080%=      5-min Rain = 0
KCR2 261512Z 16014KT 23/20 A2998 RMK A01 T02310195  RH  080%=      5-min Rain = 0
KCR2 261513Z 16013KT 23/20 A2998 RMK A01 T02310196  RH  080%=      5-min Rain = 0
KCR2 261514Z 16015KT 23/20 A2998 RMK A01 T02320195  RH  080%=      5-min Rain = 0
KCR2 261515Z 16012KT 23/20 A2998 RMK A01 T02320196  RH  080%=      5-min Rain = 0
KCR2 261516Z 16012G20KT 23/20 A2998 RMK A01 T02320197  RH  081%=      5-min Rain = 0
KCR2 261517Z 16015KT 23/20 A2998 RMK A01 T02330195  RH  079%=      5-min Rain = 0
KCR2 261518Z 17015KT 23/20 A2999 RMK A01 T02330195  RH  079%=      5-min Rain = 0
KCR2 261519Z 16015KT 23/20 A2999 RMK A01 T02320195  RH  079%=      5-min Rain = 0
KCR2 261520Z 16014KT 23/20 A2999 RMK A01 T02320196  RH  080%=      5-min Rain = 0
KCR2 261521Z 17016KT 23/19 A2999 RMK A01 T02320194  RH  079%=      5-min Rain = 0
KCR2 261522Z 17014KT 23/20 A2999 RMK A01 T02320195  RH  080%=      5-min Rain = 0
KCR2 261523Z 16012KT 23/20 A2999 RMK A01 T02320195  RH  080%=      5-min Rain = 0
KCR2 261524Z 16015KT 23/19 A2999 RMK A01 T02320194  RH  079%=      5-min Rain = 0
KCR2 261525Z 16016KT 23/19 A2999 RMK A01 T02320194  RH  079%=      5-min Rain = 0
KCR2 261526Z 16016KT 23/20 A2999 RMK A01 T02330195  RH  079%=      5-min Rain = 0
KCR2 261527Z 17012G17KT 23/20 A2999 RMK A01 T02330195  RH  080%=      5-min Rain = 0
KCR2 261528Z 17015KT 23/20 A2999 RMK A01 T02330195  RH  079%=      5-min Rain = 0
KCR2 261529Z 17015KT 23/20 A2999 RMK A01 T02330196  RH  079%=      5-min Rain = 0
KCR2 261530Z 17017KT 23/20 A2999 RMK A01 T02330195  RH  079%=      5-min Rain = 0
KCR2 261531Z 16015KT 23/20 A2999 RMK A01 T02330196  RH  079%=      5-min Rain = 0
KCR2 261532Z 17017KT 23/20 A2999 RMK A01 T02330195  RH  079%=      5-min Rain = 0
KCR2 261533Z 17016G21KT 23/20 A2999 RMK A01 T02330195  RH  079%=      5-min Rain = 0
KCR2 261534Z 16016KT 23/20 A2999 RMK A01 T02330195  RH  079%=      5-min Rain = 0
KCR2 261535Z 16015KT 23/20 A2999 RMK A01 T02340196  RH  079%=      5-min Rain = 0
KCR2 261536Z 16015KT 23/20 A2999 RMK A01 T02340196  RH  079%=      5-min Rain = 0
KCR2 261537Z 17015KT 23/20 A2999 RMK A01 T02340196  RH  079%=      5-min Rain = 0
KCR2 261538Z 17015KT 23/20 A2999 RMK A01 T02340197  RH  079%=      5-min Rain = 0
KCR2 261539Z 17015KT 23/20 A2999 RMK A01 T02340197  RH  079%=      5-min Rain = 0
KCR2 261540Z 18016KT 23/20 A2999 RMK A01 T02340197  RH  079%=      5-min Rain = 0
KCR2 261541Z 17016KT 23/20 A2999 RMK A01 T02340195  RH  079%=      5-min Rain = 0
KCR2 261542Z 17014KT 23/20 A2999 RMK A01 T02340196  RH  079%=      5-min Rain = 0
KCR2 261543Z 17015KT 23/20 A2999 RMK A01 T02340196  RH  079%=      5-min Rain = 0
KCR2 261544Z 18016KT 23/20 A2999 RMK A01 T02340195  RH  079%=      5-min Rain = 0
KCR2 261545Z 17018KT 23/20 A2999 RMK A01 T02340195  RH  079%=      5-min Rain = 0
KCR2 261546Z 17015KT 23/20 A2999 RMK A01 T02340196  RH  079%=      5-min Rain = 0
KCR2 261547Z 17015G20KT 23/20 A2999 RMK A01 T02340196  RH  079%=      5-min Rain = 0
KCR2 261548Z 17016KT 23/20 A2999 RMK A01 T02340196  RH  079%=      5-min Rain = 0
KCR2 261549Z 19016KT 23/20 A2999 RMK A01 T02340196  RH  079%=      5-min Rain = 0
KCR2 261550Z 18016KT 23/20 A2999 RMK A01 T02340196  RH  079%=      5-min Rain = 0
KCR2 261551Z 18013KT 23/20 A2999 RMK A01 T02340197  RH  080%=      5-min Rain = 0
KCR2 261552Z 18015KT 23/20 A2999 RMK A01 T02330197  RH  080%=      5-min Rain = 0
KCR2 261553Z 18013KT 23/20 A2999 RMK A01 T02330198  RH  080%=      5-min Rain = 0
KCR2 261554Z 18014KT 23/20 A2999 RMK A01 T02340197  RH  080%=      5-min Rain = 0
KCR2 261555Z 18013KT 23/20 A2999 RMK A01 T02330197  RH  080%=      5-min Rain = 0
KCR2 261556Z 18014KT 23/20 A2999 RMK A01 T02340196  RH  079%=      5-min Rain = 0
KCR2 261557Z 18015KT 23/20 A2999 RMK A01 T02330197  RH  080%=      5-min Rain = 0
KCR2 261558Z 18016KT 23/20 A2999 RMK A01 T02340196  RH  079%=      5-min Rain = 0
KCR2 261559Z 18014KT 23/20 A2999 RMK A01 T02340196  RH  079%=      5-min Rain = 0
KCR2 261600Z 17012KT 23/20 A2999 RMK A01 T02340197  RH  080%=      5-min Rain = 0
KCR2 261601Z 16012KT 23/20 A2999 RMK A01 T02340198  RH  080%=      5-min Rain = 0
KCR2 261602Z 17011KT 23/20 A2999 RMK A01 T02340199  RH  080%=      5-min Rain = 0
KCR2 261603Z 17014KT 24/20 A2999 RMK A01 T02350196  RH  079%=      5-min Rain = 0
KCR2 261604Z 17016KT 23/20 A2999 RMK A01 T02340197  RH  079%=      5-min Rain = 0
KCR2 261605Z 18015KT 23/20 A2999 RMK A01 T02340198  RH  080%=      5-min Rain = 0
KCR2 261606Z 18013KT 23/20 A2999 RMK A01 T02340198  RH  080%=      5-min Rain = 0
KCR2 261607Z 17016KT 23/20 A2999 RMK A01 T02340197  RH  080%=      5-min Rain = 0
KCR2 261608Z 16014KT 23/20 A2999 RMK A01 T02340197  RH  080%=      5-min Rain = 0
KCR2 261609Z 18015G20KT 23/20 A2999 RMK A01 T02340196  RH  079%=      5-min Rain = 0
KCR2 261610Z 18016KT 23/20 A2999 RMK A01 T02340198  RH  080%=      5-min Rain = 0
KCR2 261611Z 18014G20KT 23/20 A2999 RMK A01 T02340197  RH  080%=      5-min Rain = 0
KCR2 261612Z 18014G21KT 23/20 A2999 RMK A01 T02340199  RH  081%=      5-min Rain = 0
KCR2 261613Z 18018KT 23/20 A2999 RMK A01 T02340197  RH  080%=      5-min Rain = 0
KCR2 261614Z 18016KT 23/20 A2999 RMK A01 T02340197  RH  080%=      5-min Rain = 0
KCR2 261615Z 18014KT 23/20 A2999 RMK A01 T02340197  RH  080%=      5-min Rain = 0
KCR2 261616Z 17014KT 23/20 A2999 RMK A01 T02340197  RH  080%=      5-min Rain = 0
KCR2 261617Z 18014KT 23/20 A2999 RMK A01 T02340198  RH  080%=      5-min Rain = 0
KCR2 261618Z 18015KT 23/20 A2999 RMK A01 T02340196  RH  079%=      5-min Rain = 0
KCR2 261619Z 17018KT 23/20 A2999 RMK A01 T02340196  RH  079%=      5-min Rain = 0
KCR2 261620Z 17013KT 23/20 A2999 RMK A01 T02340197  RH  080%=      5-min Rain = 0
KCR2 261621Z 17013KT 23/20 A2999 RMK A01 T02340199  RH  081%=      5-min Rain = 0
KCR2 261622Z 17015KT 23/20 A2999 RMK A01 T02340197  RH  080%=      5-min Rain = 0
KCR2 261623Z 16015KT 23/20 A2999 RMK A01 T02340197  RH  080%=      5-min Rain = 0
KCR2 261624Z 17016KT 23/20 A2999 RMK A01 T02340197  RH  080%=      5-min Rain = 0
KCR2 261625Z 17018KT 24/20 A2999 RMK A01 T02350197  RH  079%=      5-min Rain = 0
KCR2 261626Z 18015KT 24/20 A2999 RMK A01 T02350198  RH  079%=      5-min Rain = 0
KCR2 261627Z 17016KT 24/20 A2999 RMK A01 T02360198  RH  080%=      5-min Rain = 0
KCR2 261628Z 17017KT 24/20 A2999 RMK A01 T02370199  RH  079%=      5-min Rain = 0
KCR2 261629Z 17017KT 24/20 A2999 RMK A01 T02370197  RH  078%=      5-min Rain = 0
KCR2 261630Z 17016KT 24/20 A2999 RMK A01 T02370198  RH  079%=      5-min Rain = 0
KCR2 261631Z 17018KT 24/20 A2998 RMK A01 T02370198  RH  078%=      5-min Rain = 0
KCR2 261632Z 17016KT 24/20 A2999 RMK A01 T02380199  RH  079%=      5-min Rain = 0
KCR2 261633Z 17016KT 24/20 A2998 RMK A01 T02390199  RH  078%=      5-min Rain = 0
KCR2 261634Z 17019KT 24/20 A2998 RMK A01 T02390198  RH  078%=      5-min Rain = 0
KCR2 261635Z 17017KT 24/20 A2998 RMK A01 T02410199  RH  077%=      5-min Rain = 0
KCR2 261636Z 17017KT 24/20 A2998 RMK A01 T02410199  RH  077%=      5-min Rain = 0
KCR2 261637Z 18018KT 24/20 A2998 RMK A01 T02420200  RH  077%=      5-min Rain = 0
KCR2 261638Z 18016KT 24/20 A2998 RMK A01 T02410199  RH  077%=      5-min Rain = 0
KCR2 261639Z 18013KT 24/20 A2998 RMK A01 T02410200  RH  077%=      5-min Rain = 0
KCR2 261640Z 18017G22KT 24/20 A2998 RMK A01 T02420200  RH  078%=      5-min Rain = 0
KCR2 261641Z 17017KT 24/20 A2998 RMK A01 T02430199  RH  077%=      5-min Rain = 0
KCR2 261642Z 17018KT 24/20 A2998 RMK A01 T02430201  RH  077%=      5-min Rain = 0
KCR2 261643Z 18020KT 24/20 A2998 RMK A01 T02430199  RH  076%=      5-min Rain = 0
KCR2 261644Z 17017KT 24/20 A2998 RMK A01 T02430200  RH  077%=      5-min Rain = 0
KCR2 261645Z 17015KT 24/20 A2998 RMK A01 T02430199  RH  077%=      5-min Rain = 0
KCR2 261646Z 18015KT 24/20 A2998 RMK A01 T02440201  RH  077%=      5-min Rain = 0
KCR2 261647Z 17016KT 24/20 A2998 RMK A01 T02440200  RH  076%=      5-min Rain = 0
KCR2 261648Z 17016KT 24/20 A2998 RMK A01 T02440201  RH  077%=      5-min Rain = 0
KCR2 261649Z 18014KT 24/20 A2998 RMK A01 T02440201  RH  077%=      5-min Rain = 0
KCR2 261650Z 18015KT 25/20 A2998 RMK A01 T02450201  RH  077%=      5-min Rain = 0
KCR2 261651Z 18014KT 25/20 A2998 RMK A01 T02450201  RH  076%=      5-min Rain = 0
KCR2 261652Z 18015KT 24/20 A2998 RMK A01 T02440202  RH  077%=      5-min Rain = 0
KCR2 261653Z 18012KT 24/20 A2998 RMK A01 T02440201  RH  077%=      5-min Rain = 0
KCR2 261654Z 18011KT 24/20 A2998 RMK A01 T02440203  RH  078%=      5-min Rain = 0
KCR2 261655Z 18015KT 25/20 A2998 RMK A01 T02450203  RH  077%=      5-min Rain = 0
KCR2 261656Z 18014KT 25/20 A2998 RMK A01 T02460203  RH  077%=      5-min Rain = 0
KCR2 261657Z 16013KT 25/20 A2998 RMK A01 T02470204  RH  077%=      5-min Rain = 0
KCR2 261658Z 16015KT 25/20 A2998 RMK A01 T02490203  RH  076%=      5-min Rain = 0
KCR2 261659Z 16018KT 25/20 A2998 RMK A01 T02490201  RH  075%=      5-min Rain = 0
KCR2 261700Z 16016KT 25/20 A2998 RMK A01 T02490202  RH  075%=      5-min Rain = 0
KCR2 261701Z 16017KT 25/20 A2998 RMK A01 T02490201  RH  075%=      5-min Rain = 0
KCR2 261702Z 17018KT 25/20 A2998 RMK A01 T02480202  RH  076%=      5-min Rain = 0
KCR2 261703Z 17015G20KT 25/20 A2998 RMK A01 T02480202  RH  076%=      5-min Rain = 0
KCR2 261704Z 16017KT 25/20 A2998 RMK A01 T02480203  RH  076%=      5-min Rain = 0
KCR2 261705Z 16018KT 25/20 A2998 RMK A01 T02480202  RH  075%=      5-min Rain = 0
KCR2 261706Z 17021KT 25/20 A2997 RMK A01 T02490201  RH  074%=      5-min Rain = 0
KCR2 261707Z 16021KT 25/20 A2998 RMK A01 T02480200  RH  074%=      5-min Rain = 0
KCR2 261708Z 16021KT 25/20 A2998 RMK A01 T02480200  RH  075%=      5-min Rain = 0
KCR2 261709Z 16019KT 25/20 A2998 RMK A01 T02480201  RH  075%=      5-min Rain = 0
KCR2 261710Z 17016KT 25/20 A2998 RMK A01 T02490202  RH  075%=      5-min Rain = 0
KCR2 261711Z 16016KT 25/20 A2998 RMK A01 T02510203  RH  075%=      5-min Rain = 0
KCR2 261712Z 16015KT 25/20 A2998 RMK A01 T02510203  RH  074%=      5-min Rain = 0
KCR2 261713Z 17016KT 25/20 A2998 RMK A01 T02510204  RH  075%=      5-min Rain = 0
KCR2 261714Z 17018KT 25/20 A2998 RMK A01 T02520203  RH  074%=      5-min Rain = 0
KCR2 261715Z 16016KT 25/20 A2998 RMK A01 T02520203  RH  074%=      5-min Rain = 0
KCR2 261716Z 17015KT 25/20 A2998 RMK A01 T02520203  RH  074%=      5-min Rain = 0
KCR2 261717Z 16017G23KT 25/20 A2997 RMK A01 T02520203  RH  074%=      5-min Rain = 0
KCR2 261718Z 16019KT 25/20 A2997 RMK A01 T02530201  RH  073%=      5-min Rain = 0
KCR2 261719Z 16018KT 25/20 A2998 RMK A01 T02520202  RH  074%=      5-min Rain = 0
KCR2 261720Z 16015KT 25/20 A2998 RMK A01 T02520204  RH  075%=      5-min Rain = 0
KCR2 261721Z 17018KT 25/20 A2997 RMK A01 T02520202  RH  074%=      5-min Rain = 0
KCR2 261722Z 16020G25KT 25/20 A2998 RMK A01 T02520201  RH  073%=      5-min Rain = 0
KCR2 261723Z 16017KT 25/20 A2998 RMK A01 T02510202  RH  074%=      5-min Rain = 0
KCR2 261724Z 16019KT 25/20 A2998 RMK A01 T02510202  RH  074%=      5-min Rain = 0
KCR2 261725Z 17017KT 25/20 A2998 RMK A01 T02520203  RH  074%=      5-min Rain = 0
KCR2 261726Z 17015KT 25/20 A2998 RMK A01 T02530203  RH  074%=      5-min Rain = 0
KCR2 261727Z 17017KT 25/20 A2998 RMK A01 T02540204  RH  074%=      5-min Rain = 0
KCR2 261728Z 16020KT 25/20 A2998 RMK A01 T02530202  RH  073%=      5-min Rain = 0
KCR2 261729Z 16018G23KT 25/20 A2998 RMK A01 T02530202  RH  073%=      5-min Rain = 0
KCR2 261730Z 16019KT 25/20 A2998 RMK A01 T02520202  RH  074%=      5-min Rain = 0
KCR2 261731Z 17017KT 25/20 A2998 RMK A01 T02530202  RH  074%=      5-min Rain = 0
KCR2 261732Z 18015KT 25/20 A2998 RMK A01 T02530202  RH  074%=      5-min Rain = 0
KCR2 261733Z 17014G19KT 25/20 A2998 RMK A01 T02540202  RH  073%=      5-min Rain = 0
KCR2 261734Z 17016KT 26/20 A2998 RMK A01 T02550203  RH  073%=      5-min Rain = 0
KCR2 261735Z 17014KT 26/20 A2998 RMK A01 T02550203  RH  073%=      5-min Rain = 0
KCR2 261736Z 17016KT 26/20 A2998 RMK A01 T02550202  RH  072%=      5-min Rain = 0
KCR2 261737Z 18017KT 26/20 A2998 RMK A01 T02550203  RH  073%=      5-min Rain = 0
KCR2 261738Z 17012KT 25/20 A2998 RMK A01 T02540203  RH  073%=      5-min Rain = 0
KCR2 261739Z 16012KT 26/21 A2998 RMK A01 T02550206  RH  074%=      5-min Rain = 0
KCR2 261740Z 16015G20KT 26/20 A2998 RMK A01 T02560204  RH  073%=      5-min Rain = 0
KCR2 261741Z 16016KT 26/20 A2998 RMK A01 T02560203  RH  072%=      5-min Rain = 0
KCR2 261742Z 16017KT 26/20 A2998 RMK A01 T02560202  RH  072%=      5-min Rain = 0
KCR2 261743Z 15014G20KT 25/20 A2998 RMK A01 T02540204  RH  074%=      5-min Rain = 0
KCR2 261744Z 15017KT 26/20 A2998 RMK A01 T02550202  RH  072%=      5-min Rain = 0
KCR2 261745Z 15014G20KT 25/20 A2998 RMK A01 T02540200  RH  072%=      5-min Rain = 0
KCR2 261746Z 16018KT 25/20 A2997 RMK A01 T02530200  RH  072%=      5-min Rain = 0
KCR2 261747Z 16019KT 25/20 A2997 RMK A01 T02530201  RH  073%=      5-min Rain = 0
KCR2 261748Z 16016KT 25/20 A2997 RMK A01 T02530202  RH  073%=      5-min Rain = 0
KCR2 261749Z 16018KT 25/20 A2997 RMK A01 T02540202  RH  073%=      5-min Rain = 0
KCR2 261750Z 15018KT 26/20 A2997 RMK A01 T02550202  RH  073%=      5-min Rain = 0
KCR2 261751Z 17020KT 26/20 A2997 RMK A01 T02550201  RH  072%=      5-min Rain = 0
KCR2 261752Z 16017KT 26/20 A2997 RMK A01 T02550203  RH  073%=      5-min Rain = 0
KCR2 261753Z 16016KT 26/20 A2997 RMK A01 T02550203  RH  073%=      5-min Rain = 0
KCR2 261754Z 17017KT 26/20 A2997 RMK A01 T02560201  RH  072%=      5-min Rain = 0
KCR2 261755Z 16014G19KT 26/20 A2997 RMK A01 T02560203  RH  072%=      5-min Rain = 0
KCR2 261756Z 16018KT 26/20 A2997 RMK A01 T02570200  RH  071%=      5-min Rain = 0
KCR2 261757Z 16018KT 26/20 A2997 RMK A01 T02570202  RH  072%=      5-min Rain = 0
KCR2 261758Z 16018KT 26/20 A2997 RMK A01 T02560200  RH  071%=      5-min Rain = 0
KCR2 261759Z 16019KT 26/20 A2997 RMK A01 T02560202  RH  072%=      5-min Rain = 0
KCR2 261800Z 15018KT 26/20 A2997 RMK A01 T02560200  RH  071%=      5-min Rain = 0
KCR2 261801Z 16015KT 26/20 A2997 RMK A01 T02560202  RH  072%=      5-min Rain = 0
KCR2 261802Z 17015KT 26/20 A2997 RMK A01 T02560203  RH  072%=      5-min Rain = 0
KCR2 261803Z 18019KT 26/20 A2997 RMK A01 T02580202  RH  071%=      5-min Rain = 0
KCR2 261804Z 18017G22KT 26/20 A2997 RMK A01 T02580202  RH  071%=      5-min Rain = 0
KCR2 261805Z 18015KT 26/20 A2997 RMK A01 T02580200  RH  070%=      5-min Rain = 0
KCR2 261806Z 19016KT 26/20 A2997 RMK A01 T02590203  RH  071%=      5-min Rain = 0
KCR2 261807Z 17014G19KT 26/21 A2997 RMK A01 T02610206  RH  072%=      5-min Rain = 0
KCR2 261808Z 16017KT 26/20 A2997 RMK A01 T02620204  RH  070%=      5-min Rain = 0
KCR2 261809Z 17016G21KT 26/21 A2997 RMK A01 T02630205  RH  071%=      5-min Rain = 0
KCR2 261810Z 16018KT 26/20 A2997 RMK A01 T02630204  RH  070%=      5-min Rain = 0
KCR2 261811Z 16019KT 26/20 A2997 RMK A01 T02630204  RH  070%=      5-min Rain = 0
KCR2 261812Z 16019KT 26/20 A2997 RMK A01 T02620202  RH  070%=      5-min Rain = 0
KCR2 261813Z 16016G21KT 26/20 A2997 RMK A01 T02610202  RH  070%=      5-min Rain = 0
KCR2 261814Z 16016KT 26/20 A2997 RMK A01 T02600202  RH  070%=      5-min Rain = 0
KCR2 261815Z 16018KT 26/20 A2997 RMK A01 T02600203  RH  071%=      5-min Rain = 0
KCR2 261816Z 17017KT 26/21 A2997 RMK A01 T02610205  RH  071%=      5-min Rain = 0
KCR2 261817Z 17017KT 26/20 A2997 RMK A01 T02610202  RH  070%=      5-min Rain = 0
KCR2 261818Z 17017KT 26/20 A2997 RMK A01 T02610203  RH  070%=      5-min Rain = 0
KCR2 261819Z 16018KT 26/20 A2997 RMK A01 T02610203  RH  070%=      5-min Rain = 0
KCR2 261820Z 16016KT 26/20 A2997 RMK A01 T02610202  RH  070%=      5-min Rain = 0
KCR2 261821Z 17018KT 26/20 A2997 RMK A01 T02610202  RH  070%=      5-min Rain = 0
KCR2 261822Z 17016G21KT 26/21 A2997 RMK A01 T02620205  RH  071%=      5-min Rain = 0
KCR2 261823Z 17019KT 26/20 A2997 RMK A01 T02640204  RH  070%=      5-min Rain = 0
KCR2 261824Z 16020KT 26/20 A2997 RMK A01 T02630202  RH  069%=      5-min Rain = 0
KCR2 261825Z 15017KT 26/20 A2997 RMK A01 T02610202  RH  070%=      5-min Rain = 0
KCR2 261826Z 16017KT 26/20 A2997 RMK A01 T02620204  RH  071%=      5-min Rain = 0
KCR2 261827Z 16016KT 26/20 A2997 RMK A01 T02630204  RH  070%=      5-min Rain = 0
KCR2 261828Z 16019G24KT 26/20 A2997 RMK A01 T02640204  RH  070%=      5-min Rain = 0
KCR2 261829Z 16018KT 26/20 A2997 RMK A01 T02640204  RH  069%=      5-min Rain = 0
KCR2 261830Z 18019KT 26/20 A2997 RMK A01 T02640202  RH  069%=      5-min Rain = 0
KCR2 261831Z 17016KT 26/20 A2997 RMK A01 T02630203  RH  069%=      5-min Rain = 0
KCR2 261832Z 17015KT 26/21 A2997 RMK A01 T02640206  RH  070%=      5-min Rain = 0
KCR2 261833Z 18013KT 27/21 A2997 RMK A01 T02660206  RH  069%=      5-min Rain = 0
KCR2 261834Z 17016G21KT 27/21 A2997 RMK A01 T02670207  RH  070%=      5-min Rain = 0
KCR2 261835Z 17018KT 27/21 A2997 RMK A01 T02690207  RH  069%=      5-min Rain = 0
KCR2 261836Z 16018KT 27/20 A2997 RMK A01 T02690203  RH  067%=      5-min Rain = 0
KCR2 261837Z 17017KT 27/20 A2997 RMK A01 T02680203  RH  068%=      5-min Rain = 0
KCR2 261838Z 18017KT 27/20 A2997 RMK A01 T02670201  RH  067%=      5-min Rain = 0
KCR2 261839Z 17016KT 27/20 A2997 RMK A01 T02660202  RH  068%=      5-min Rain = 0
KCR2 261840Z 17014KT 27/21 A2997 RMK A01 T02670208  RH  070%=      5-min Rain = 0
KCR2 261841Z 16019KT 27/21 A2997 RMK A01 T02690207  RH  069%=      5-min Rain = 0
KCR2 261842Z 17019KT 27/20 A2997 RMK A01 T02700204  RH  068%=      5-min Rain = 0
KCR2 261843Z 17016KT 27/21 A2997 RMK A01 T02670206  RH  069%=      5-min Rain = 0
KCR2 261844Z 16016G22KT 27/21 A2997 RMK A01 T02680207  RH  069%=      5-min Rain = 0
KCR2 261845Z 17017KT 27/21 A2997 RMK A01 T02690205  RH  068%=      5-min Rain = 0
KCR2 261846Z 16016KT 27/21 A2997 RMK A01 T02670205  RH  068%=      5-min Rain = 0
KCR2 261847Z 15015KT 27/20 A2997 RMK A01 T02660203  RH  068%=      5-min Rain = 0
KCR2 261848Z 17015KT 27/21 A2997 RMK A01 T02660205  RH  069%=      5-min Rain = 0
KCR2 261849Z 17021KT 27/20 A2997 RMK A01 T02660204  RH  069%=      5-min Rain = 0
KCR2 261850Z 17017KT 27/20 A2997 RMK A01 T02650203  RH  069%=      5-min Rain = 0
KCR2 261851Z 17017KT 26/21 A2997 RMK A01 T02640206  RH  070%=      5-min Rain = 0
KCR2 261852Z 16014KT 27/20 A2997 RMK A01 T02650204  RH  069%=      5-min Rain = 0
KCR2 261853Z 17018KT 27/20 A2997 RMK A01 T02650204  RH  069%=      5-min Rain = 0
KCR2 261854Z 17017KT 27/20 A2996 RMK A01 T02650202  RH  068%=      5-min Rain = 0
KCR2 261855Z 17017KT 26/20 A2997 RMK A01 T02640203  RH  069%=      5-min Rain = 0
KCR2 261856Z 16014KT 26/21 A2997 RMK A01 T02640205  RH  070%=      5-min Rain = 0
KCR2 261857Z 16013KT 27/21 A2997 RMK A01 T02670209  RH  070%=      5-min Rain = 0
KCR2 261858Z 16013KT 27/21 A2997 RMK A01 T02690209  RH  069%=      5-min Rain = 0
KCR2 261859Z 16014KT 27/21 A2997 RMK A01 T02710206  RH  067%=      5-min Rain = 0
KCR2 261900Z 16012KT 27/21 A2997 RMK A01 T02700206  RH  068%=      5-min Rain = 0
KCR2 261901Z 17014KT 27/21 A2997 RMK A01 T02700207  RH  068%=      5-min Rain = 0
KCR2 261902Z 17015KT 27/21 A2997 RMK A01 T02710208  RH  068%=      5-min Rain = 0
KCR2 261903Z 16016KT 27/20 A2997 RMK A01 T02710204  RH  067%=      5-min Rain = 0
KCR2 261904Z 15017G23KT 27/21 A2997 RMK A01 T02700207  RH  068%=      5-min Rain = 0
KCR2 261905Z 15017KT 27/21 A2997 RMK A01 T02690206  RH  068%=      5-min Rain = 0
KCR2 261906Z 17014KT 27/21 A2997 RMK A01 T02690206  RH  069%=      5-min Rain = 0
KCR2 261907Z 17013KT 27/21 A2997 RMK A01 T02690207  RH  069%=      5-min Rain = 0
KCR2 261908Z 16014KT 27/21 A2997 RMK A01 T02710208  RH  068%=      5-min Rain = 0
KCR2 261909Z 16014G20KT 27/20 A2997 RMK A01 T02710204  RH  067%=      5-min Rain = 0
KCR2 261910Z 17015KT 27/20 A2997 RMK A01 T02690204  RH  068%=      5-min Rain = 0
KCR2 261911Z 18014KT 27/20 A2997 RMK A01 T02680203  RH  068%=      5-min Rain = 0
KCR2 261912Z 18013KT 27/20 A2997 RMK A01 T02670202  RH  068%=      5-min Rain = 0
KCR2 261913Z 18014KT 27/21 A2997 RMK A01 T02670206  RH  069%=      5-min Rain = 0
KCR2 261914Z 17016KT 27/21 A2997 RMK A01 T02680205  RH  068%=      5-min Rain = 0
KCR2 261915Z 16013KT 27/21 A2997 RMK A01 T02680205  RH  068%=      5-min Rain = 0
KCR2 261916Z 15017KT 27/20 A2997 RMK A01 T02690204  RH  068%=      5-min Rain = 0
KCR2 261917Z 17016KT 27/21 A2997 RMK A01 T02690205  RH  068%=      5-min Rain = 0
KCR2 261918Z 16014KT 27/21 A2997 RMK A01 T02690206  RH  069%=      5-min Rain = 0
KCR2 261919Z 16016KT 27/20 A2997 RMK A01 T02690204  RH  067%=      5-min Rain = 0
KCR2 261920Z 16014KT 27/20 A2997 RMK A01 T02680203  RH  068%=      5-min Rain = 0
KCR2 261921Z 17013G18KT 27/21 A2997 RMK A01 T02670206  RH  069%=      5-min Rain = 0
KCR2 261922Z 16016KT 27/20 A2997 RMK A01 T02680203  RH  068%=      5-min Rain = 0
KCR2 261923Z 17013KT 27/21 A2997 RMK A01 T02680205  RH  068%=      5-min Rain = 0
KCR2 261924Z 17011KT 27/21 A2997 RMK A01 T02680206  RH  069%=      5-min Rain = 0
KCR2 261925Z 16012G18KT 27/21 A2997 RMK A01 T02690206  RH  069%=      5-min Rain = 0
KCR2 261926Z 16016KT 27/20 A2996 RMK A01 T02690202  RH  067%=      5-min Rain = 0
KCR2 261927Z 16012KT 27/21 A2997 RMK A01 T02690207  RH  069%=      5-min Rain = 0
KCR2 261928Z 16013KT 27/21 A2997 RMK A01 T02710207  RH  068%=      5-min Rain = 0
KCR2 261929Z 16016KT 27/21 A2997 RMK A01 T02720205  RH  067%=      5-min Rain = 0
KCR2 261930Z 17016G21KT 27/21 A2997 RMK A01 T02710206  RH  068%=      5-min Rain = 0
KCR2 261931Z 16016KT 27/20 A2997 RMK A01 T02700204  RH  067%=      5-min Rain = 0
KCR2 261932Z 16017KT 27/20 A2997 RMK A01 T02680203  RH  067%=      5-min Rain = 0
KCR2 261933Z 17017KT 27/20 A2997 RMK A01 T02670203  RH  068%=      5-min Rain = 0
KCR2 261934Z 16016KT 27/20 A2997 RMK A01 T02670203  RH  068%=      5-min Rain = 0
KCR2 261935Z 16015KT 27/20 A2997 RMK A01 T02660203  RH  068%=      5-min Rain = 0
KCR2 261936Z 16017KT 27/20 A2997 RMK A01 T02660203  RH  068%=      5-min Rain = 0
KCR2 261937Z 16017KT 27/20 A2997 RMK A01 T02660204  RH  068%=      5-min Rain = 0
KCR2 261938Z 16016KT 27/20 A2997 RMK A01 T02670204  RH  068%=      5-min Rain = 0
KCR2 261939Z 16015KT 27/21 A2997 RMK A01 T02670205  RH  069%=      5-min Rain = 0
KCR2 261940Z 18013KT 27/21 A2997 RMK A01 T02680207  RH  069%=      5-min Rain = 0
KCR2 261941Z 18013KT 27/21 A2998 RMK A01 T02690206  RH  069%=      5-min Rain = 0
KCR2 261942Z 19014G19KT 27/20 A2997 RMK A01 T02680204  RH  068%=      5-min Rain = 0
KCR2 261943Z 18016G22KT 27/21 A2997 RMK A01 T02670205  RH  069%=      5-min Rain = 0
KCR2 261944Z 18017KT 27/20 A2997 RMK A01 T02660202  RH  068%=      5-min Rain = 0
KCR2 261945Z 17017KT 27/20 A2997 RMK A01 T02650202  RH  068%=      5-min Rain = 0
KCR2 261946Z 17017G22KT 27/20 A2998 RMK A01 T02650203  RH  069%=      5-min Rain = 0
KCR2 261947Z 17019KT 27/20 A2998 RMK A01 T02650202  RH  068%=      5-min Rain = 0
KCR2 261948Z 17016KT 26/20 A2998 RMK A01 T02640203  RH  069%=      5-min Rain = 0
KCR2 261949Z 17016KT 26/20 A2998 RMK A01 T02640202  RH  069%=      5-min Rain = 0
KCR2 261950Z 17015KT 26/20 A2998 RMK A01 T02630202  RH  069%=      5-min Rain = 0
KCR2 261951Z 18014KT 26/20 A2998 RMK A01 T02630202  RH  069%=      5-min Rain = 0
KCR2 261952Z 18013KT 26/20 A2998 RMK A01 T02630203  RH  070%=      5-min Rain = 0
KCR2 261953Z 18010G15KT 26/21 A2998 RMK A01 T02630206  RH  070%=      5-min Rain = 0
KCR2 261954Z 18015KT 26/20 A2998 RMK A01 T02640204  RH  070%=      5-min Rain = 0
KCR2 261955Z 18016KT 26/20 A2998 RMK A01 T02640204  RH  070%=      5-min Rain = 0
KCR2 261956Z 18014KT 26/20 A2998 RMK A01 T02640203  RH  069%=      5-min Rain = 0
KCR2 261957Z 17014KT 26/20 A2998 RMK A01 T02630203  RH  069%=      5-min Rain = 0
KCR2 261958Z 18016KT 26/20 A2998 RMK A01 T02640203  RH  069%=      5-min Rain = 0
KCR2 261959Z 18015KT 26/20 A2998 RMK A01 T02640203  RH  069%=      5-min Rain = 0
KCR2 262000Z 17012KT 26/21 A2998 RMK A01 T02640205  RH  070%=      5-min Rain = 0
KCR2 262001Z 17012KT 26/21 A2998 RMK A01 T02640206  RH  070%=      5-min Rain = 0
KCR2 262002Z 17015G20KT 26/20 A2998 RMK A01 T02640201  RH  068%=      5-min Rain = 0
KCR2 262003Z 17015KT 26/20 A2998 RMK A01 T02640203  RH  069%=      5-min Rain = 0
KCR2 262004Z 18016KT 26/20 A2998 RMK A01 T02640203  RH  069%=      5-min Rain = 0
KCR2 262005Z 18015KT 26/20 A2998 RMK A01 T02640203  RH  069%=      5-min Rain = 0
KCR2 262006Z 18013KT 26/20 A2998 RMK A01 T02640203  RH  069%=      5-min Rain = 0
KCR2 262007Z 18013KT 27/20 A2998 RMK A01 T02650203  RH  069%=      5-min Rain = 0
KCR2 262008Z 18013KT 27/20 A2997 RMK A01 T02650202  RH  068%=      5-min Rain = 0
KCR2 262009Z 16012KT 27/20 A2997 RMK A01 T02660202  RH  068%=      5-min Rain = 0
KCR2 262010Z 16011KT 27/20 A2997 RMK A01 T02660204  RH  069%=      5-min Rain = 0
KCR2 262011Z 16009KT 27/21 A2997 RMK A01 T02660206  RH  069%=      5-min Rain = 0
KCR2 262012Z 17012KT 27/21 A2996 RMK A01 T02680205  RH  068%=      5-min Rain = 0
KCR2 262013Z 16012KT 27/20 A2996 RMK A01 T02690203  RH  067%=      5-min Rain = 0
KCR2 262014Z 16013KT 27/20 A2996 RMK A01 T02690203  RH  067%=      5-min Rain = 0
KCR2 262015Z 16012KT 27/20 A2996 RMK A01 T02690203  RH  067%=      5-min Rain = 0
KCR2 262016Z 16015KT 27/20 A2996 RMK A01 T02700202  RH  067%=      5-min Rain = 0
KCR2 262017Z 17013KT 27/20 A2996 RMK A01 T02700201  RH  066%=      5-min Rain = 0
KCR2 262018Z 17013KT 27/20 A2996 RMK A01 T02700204  RH  067%=      5-min Rain = 0
KCR2 262019Z 17014KT 27/20 A2996 RMK A01 T02710203  RH  066%=      5-min Rain = 0
KCR2 262020Z 17013KT 27/20 A2996 RMK A01 T02700202  RH  066%=      5-min Rain = 0
KCR2 262021Z 16012KT 27/20 A2996 RMK A01 T02700203  RH  067%=      5-min Rain = 0
KCR2 262022Z 16013KT 27/20 A2996 RMK A01 T02700203  RH  067%=      5-min Rain = 0
KCR2 262023Z 17010KT 27/21 A2996 RMK A01 T02690205  RH  068%=      5-min Rain = 0
KCR2 262024Z 18015KT 27/20 A2996 RMK A01 T02700204  RH  067%=      5-min Rain = 0
KCR2 262025Z 18014KT 27/20 A2996 RMK A01 T02700204  RH  067%=      5-min Rain = 0
KCR2 262026Z 18014KT 27/20 A2996 RMK A01 T02700203  RH  067%=      5-min Rain = 0
KCR2 262027Z 17013KT 27/20 A2996 RMK A01 T02700204  RH  067%=      5-min Rain = 0
KCR2 262028Z 16014KT 27/20 A2996 RMK A01 T02690204  RH  067%=      5-min Rain = 0
KCR2 262029Z 16014KT 27/20 A2995 RMK A01 T02700203  RH  067%=      5-min Rain = 0
KCR2 262030Z 17014KT 27/20 A2995 RMK A01 T02700202  RH  066%=      5-min Rain = 0
KCR2 262031Z 16014KT 27/20 A2995 RMK A01 T02700203  RH  067%=      5-min Rain = 0
KCR2 262032Z 16011KT 27/21 A2995 RMK A01 T02700205  RH  068%=      5-min Rain = 0
KCR2 262033Z 16013KT 27/20 A2995 RMK A01 T02700204  RH  067%=      5-min Rain = 0
KCR2 262034Z 15015KT 27/20 A2995 RMK A01 T02710203  RH  067%=      5-min Rain = 0
KCR2 262035Z 15012KT 27/20 A2994 RMK A01 T02710203  RH  067%=      5-min Rain = 0
KCR2 262036Z 14011KT 27/21 A2994 RMK A01 T02710205  RH  067%=      5-min Rain = 0
KCR2 262037Z 14010KT 27/21 A2994 RMK A01 T02710206  RH  068%=      5-min Rain = 0
KCR2 262038Z 14014KT 27/21 A2994 RMK A01 T02720205  RH  067%=      5-min Rain = 0
KCR2 262039Z 16014KT 27/20 A2994 RMK A01 T02710203  RH  066%=      5-min Rain = 0
KCR2 262040Z 16012KT 27/20 A2994 RMK A01 T02710203  RH  066%=      5-min Rain = 0
KCR2 262041Z 15010KT 27/21 A2995 RMK A01 T02720206  RH  067%=      5-min Rain = 0
KCR2 262042Z 16011KT 27/20 A2995 RMK A01 T02720204  RH  066%=      5-min Rain = 0
KCR2 262043Z 16012KT 27/21 A2994 RMK A01 T02730205  RH  066%=      5-min Rain = 0
KCR2 262044Z 16011G16KT 27/20 A2994 RMK A01 T02730203  RH  066%=      5-min Rain = 0
KCR2 262045Z 15012KT 27/20 A2994 RMK A01 T02740204  RH  066%=      5-min Rain = 0
KCR2 262046Z 14013KT 27/20 A2994 RMK A01 T02740203  RH  065%=      5-min Rain = 0
KCR2 262047Z 15013KT 28/20 A2994 RMK A01 T02750204  RH  065%=      5-min Rain = 0
KCR2 262048Z 15014KT 28/20 A2994 RMK A01 T02760203  RH  064%=      5-min Rain = 0
KCR2 262049Z 15014KT 28/20 A2994 RMK A01 T02760204  RH  065%=      5-min Rain = 0
KCR2 262050Z 15013KT 28/20 A2994 RMK A01 T02770204  RH  064%=      5-min Rain = 0
KCR2 262051Z 17012KT 28/20 A2994 RMK A01 T02780204  RH  064%=      5-min Rain = 0
KCR2 262052Z 16014KT 28/20 A2994 RMK A01 T02780201  RH  063%=      5-min Rain = 0
KCR2 262053Z 16015KT 28/20 A2994 RMK A01 T02780204  RH  064%=      5-min Rain = 0
KCR2 262054Z 15015KT 28/20 A2994 RMK A01 T02780203  RH  063%=      5-min Rain = 0
KCR2 262055Z 17015KT 28/20 A2994 RMK A01 T02780203  RH  064%=      5-min Rain = 0
KCR2 262056Z 18016KT 28/20 A2994 RMK A01 T02780200  RH  063%=      5-min Rain = 0
KCR2 262057Z 18016KT 28/20 A2994 RMK A01 T02780202  RH  063%=      5-min Rain = 0
KCR2 262058Z 17014KT 28/20 A2994 RMK A01 T02790202  RH  063%=      5-min Rain = 0
KCR2 262059Z 17016KT 28/20 A2994 RMK A01 T02790203  RH  063%=      5-min Rain = 0
KCR2 262100Z 16017KT 28/21 A2994 RMK A01 T02800205  RH  064%=      5-min Rain = 0
KCR2 262101Z 16016KT 28/21 A2994 RMK A01 T02800205  RH  064%=      5-min Rain = 0
KCR2 262102Z 16013KT 28/21 A2993 RMK A01 T02800205  RH  064%=      5-min Rain = 0
KCR2 262103Z 16010KT 28/21 A2993 RMK A01 T02800206  RH  064%=      5-min Rain = 0
KCR2 262104Z 14013KT 28/21 A2992 RMK A01 T02800207  RH  064%=      5-min Rain = 0
KCR2 262105Z 13015KT 28/21 A2992 RMK A01 T02810206  RH  064%=      5-min Rain = 0
KCR2 262106Z 13015KT 28/21 A2992 RMK A01 T02800205  RH  064%=      5-min Rain = 0
KCR2 262107Z 15014KT 28/20 A2991 RMK A01 T02790204  RH  064%=      5-min Rain = 0
KCR2 262108Z 14014KT 28/21 A2991 RMK A01 T02790205  RH  064%=      5-min Rain = 0
KCR2 262109Z 14012KT 28/21 A2991 RMK A01 T02790207  RH  065%=      5-min Rain = 0
KCR2 262110Z 14012G17KT 28/21 A2991 RMK A01 T02790208  RH  065%=      5-min Rain = 0
KCR2 262111Z 14013KT 28/21 A2991 RMK A01 T02790206  RH  064%=      5-min Rain = 0
KCR2 262112Z 14012KT 28/21 A2991 RMK A01 T02800206  RH  064%=      5-min Rain = 0
KCR2 262113Z 14013KT 28/21 A2991 RMK A01 T02800206  RH  064%=      5-min Rain = 0
KCR2 262114Z 15010KT 28/21 A2991 RMK A01 T02790207  RH  065%=      5-min Rain = 0
KCR2 262115Z 15010G15KT 28/21 A2992 RMK A01 T02790209  RH  066%=      5-min Rain = 0
KCR2 262116Z 15014KT 28/21 A2992 RMK A01 T02790205  RH  064%=      5-min Rain = 0
KCR2 262117Z 16014KT 28/21 A2992 RMK A01 T02800205  RH  064%=      5-min Rain = 0
KCR2 262118Z 17015KT 28/21 A2992 RMK A01 T02790205  RH  064%=      5-min Rain = 0
KCR2 262119Z 17013KT 28/21 A2992 RMK A01 T02790205  RH  064%=      5-min Rain = 0
KCR2 262120Z 18017KT 28/21 A2992 RMK A01 T02800205  RH  064%=      5-min Rain = 0
KCR2 262121Z 17018KT 28/20 A2992 RMK A01 T02800202  RH  063%=      5-min Rain = 0
KCR2 262122Z 17019KT 28/20 A2992 RMK A01 T02790202  RH  063%=      5-min Rain = 0
KCR2 262123Z 15018G23KT 28/20 A2992 RMK A01 T02790203  RH  063%=      5-min Rain = 0
KCR2 262124Z 15018KT 28/20 A2992 RMK A01 T02780202  RH  063%=      5-min Rain = 0
KCR2 262125Z 15017KT 28/20 A2992 RMK A01 T02780202  RH  064%=      5-min Rain = 0
KCR2 262126Z 15019KT 28/20 A2991 RMK A01 T02780201  RH  063%=      5-min Rain = 0
KCR2 262127Z 16018KT 28/20 A2991 RMK A01 T02770201  RH  063%=      5-min Rain = 0
KCR2 262128Z 16017KT 28/20 A2992 RMK A01 T02770202  RH  064%=      5-min Rain = 0
KCR2 262129Z 16018G24KT 28/20 A2991 RMK A01 T02770202  RH  064%=      5-min Rain = 0
KCR2 262130Z 16014KT 28/20 A2991 RMK A01 T02760203  RH  064%=      5-min Rain = 0
KCR2 262131Z 16015G21KT 28/20 A2991 RMK A01 T02760204  RH  065%=      5-min Rain = 0
KCR2 262132Z 15015KT 28/20 A2991 RMK A01 T02760204  RH  065%=      5-min Rain = 0
KCR2 262133Z 16016KT 28/20 A2991 RMK A01 T02760201  RH  064%=      5-min Rain = 0
KCR2 262134Z 16017KT 28/20 A2991 RMK A01 T02760201  RH  064%=      5-min Rain = 0
KCR2 262135Z 17015KT 28/20 A2991 RMK A01 T02760202  RH  064%=      5-min Rain = 0
KCR2 262136Z 15018KT 28/20 A2991 RMK A01 T02760202  RH  064%=      5-min Rain = 0
KCR2 262137Z 16018KT 28/20 A2991 RMK A01 T02760201  RH  064%=      5-min Rain = 0
KCR2 262138Z 16016G21KT 28/20 A2991 RMK A01 T02760202  RH  064%=      5-min Rain = 0
KCR2 262139Z 16019KT 28/20 A299 RMK A01 T02760200  RH  063%=      5-min Rain = 0
KCR2 262140Z 15018KT 28/20 A299 RMK A01 T02750201  RH  064%=      5-min Rain = 0
KCR2 262141Z 15020KT 28/20 A299 RMK A01 T02750199  RH  063%=      5-min Rain = 0
KCR2 262142Z 16019KT 28/20 A299 RMK A01 T02750199  RH  063%=      5-min Rain = 0
KCR2 262143Z 16020KT 28/20 A2989 RMK A01 T02750200  RH  064%=      5-min Rain = 0
KCR2 262144Z 15019KT 28/20 A2989 RMK A01 T02750201  RH  064%=      5-min Rain = 0
KCR2 262145Z 15020KT 28/20 A2989 RMK A01 T02750200  RH  064%=      5-min Rain = 0
KCR2 262146Z 15016KT 28/20 A2989 RMK A01 T02750201  RH  064%=      5-min Rain = 0
KCR2 262147Z 15020KT 28/20 A2989 RMK A01 T02750200  RH  064%=      5-min Rain = 0
KCR2 262148Z 15019KT 27/20 A2989 RMK A01 T02740200  RH  064%=      5-min Rain = 0
KCR2 262149Z 15020KT 27/20 A2989 RMK A01 T02740200  RH  064%=      5-min Rain = 0
KCR2 262150Z 15019KT 27/20 A2989 RMK A01 T02740200  RH  064%=      5-min Rain = 0
KCR2 262151Z 15015KT 27/20 A2989 RMK A01 T02740202  RH  065%=      5-min Rain = 0
KCR2 262152Z 15018KT 27/20 A2989 RMK A01 T02740202  RH  065%=      5-min Rain = 0
KCR2 262153Z 15019KT 27/20 A2989 RMK A01 T02740202  RH  065%=      5-min Rain = 0
KCR2 262154Z 16018KT 27/20 A2989 RMK A01 T02740201  RH  065%=      5-min Rain = 0
KCR2 262155Z 16021KT 27/20 A2989 RMK A01 T02740199  RH  064%=      5-min Rain = 0
KCR2 262156Z 16021G27KT 27/20 A2989 RMK A01 T02730200  RH  064%=      5-min Rain = 0
KCR2 262157Z 15021KT 27/20 A2989 RMK A01 T02740199  RH  064%=      5-min Rain = 0
KCR2 262158Z 15021KT 27/20 A2989 RMK A01 T02740199  RH  064%=      5-min Rain = 0
KCR2 262159Z 14022KT 27/20 A2989 RMK A01 T02730199  RH  064%=      5-min Rain = 0
KCR2 262200Z 15022KT 27/20 A2989 RMK A01 T02740199  RH  064%=      5-min Rain = 0
KCR2 262201Z 15021KT 27/20 A2989 RMK A01 T02740198  RH  063%=      5-min Rain = 0
KCR2 262202Z 15023KT 27/20 A2989 RMK A01 T02740199  RH  064%=      5-min Rain = 0
KCR2 262203Z 15018KT 27/20 A2989 RMK A01 T02740199  RH  064%=      5-min Rain = 0
KCR2 262204Z 15017KT 27/20 A2989 RMK A01 T02730201  RH  065%=      5-min Rain = 0
KCR2 262205Z 15017KT 27/20 A2988 RMK A01 T02730200  RH  064%=      5-min Rain = 0
KCR2 262206Z 16016KT 27/20 A2988 RMK A01 T02740200  RH  064%=      5-min Rain = 0
KCR2 262207Z 15016KT 27/20 A2988 RMK A01 T02740201  RH  065%=      5-min Rain = 0
KCR2 262208Z 15018KT 27/20 A2988 RMK A01 T02730201  RH  065%=      5-min Rain = 0
KCR2 262209Z 15019KT 27/20 A2988 RMK A01 T02730201  RH  065%=      5-min Rain = 0
KCR2 262210Z 14021KT 27/20 A2988 RMK A01 T02730200  RH  064%=      5-min Rain = 0
KCR2 262211Z 14021KT 27/20 A2988 RMK A01 T02720199  RH  064%=      5-min Rain = 0
KCR2 262212Z 14018KT 27/20 A2988 RMK A01 T02720199  RH  065%=      5-min Rain = 0
KCR2 262213Z 14017KT 27/20 A2988 RMK A01 T02710200  RH  065%=      5-min Rain = 0
KCR2 262214Z 14015KT 27/20 A2987 RMK A01 T02710200  RH  065%=      5-min Rain = 0
KCR2 262215Z 14017KT 27/20 A2987 RMK A01 T02710200  RH  065%=      5-min Rain = 0
KCR2 262216Z 14019KT 27/20 A2987 RMK A01 T02710199  RH  065%=      5-min Rain = 0
KCR2 262217Z 14015KT 27/20 A2987 RMK A01 T02700199  RH  065%=      5-min Rain = 0
KCR2 262218Z 14018KT 27/20 A2987 RMK A01 T02700199  RH  065%=      5-min Rain = 0
KCR2 262219Z 14016KT 27/20 A2987 RMK A01 T02710199  RH  065%=      5-min Rain = 0
KCR2 262220Z 14016KT 27/20 A2987 RMK A01 T02700198  RH  065%=      5-min Rain = 0
KCR2 262221Z 14016KT 27/20 A2987 RMK A01 T02700198  RH  065%=      5-min Rain = 0
KCR2 262222Z 13018KT 27/20 A2987 RMK A01 T02700198  RH  065%=      5-min Rain = 0
KCR2 262223Z 13015KT 27/20 A2986 RMK A01 T02700199  RH  065%=      5-min Rain = 0
KCR2 262224Z 13013KT 27/20 A2986 RMK A01 T02710201  RH  066%=      5-min Rain = 0
KCR2 262225Z 13012KT 27/20 A2986 RMK A01 T02700202  RH  066%=      5-min Rain = 0
KCR2 262226Z 13014KT 27/20 A2986 RMK A01 T02700200  RH  065%=      5-min Rain = 0
KCR2 262227Z 13015KT 27/20 A2986 RMK A01 T02700200  RH  065%=      5-min Rain = 0
KCR2 262228Z 13014KT 27/20 A2985 RMK A01 T02700200  RH  065%=      5-min Rain = 0
KCR2 262229Z 13014KT 27/20 A2985 RMK A01 T02700200  RH  065%=      5-min Rain = 0
KCR2 262230Z 13013G18KT 27/20 A2985 RMK A01 T02700202  RH  066%=      5-min Rain = 0
KCR2 262231Z 13013KT 27/20 A2985 RMK A01 T02700202  RH  066%=      5-min Rain = 0
KCR2 262232Z 13013KT 27/20 A2985 RMK A01 T02700204  RH  067%=      5-min Rain = 0
KCR2 262233Z 13016G21KT 27/20 A2985 RMK A01 T02700202  RH  066%=      5-min Rain = 0
KCR2 262234Z 14015G21KT 27/20 A2985 RMK A01 T02700200  RH  065%=      5-min Rain = 0
KCR2 262235Z 13015KT 27/20 A2985 RMK A01 T02700201  RH  066%=      5-min Rain = 0
KCR2 262236Z 14014KT 27/20 A2985 RMK A01 T02700200  RH  066%=      5-min Rain = 0
KCR2 262237Z 14013KT 27/20 A2985 RMK A01 T02700203  RH  067%=      5-min Rain = 0
KCR2 262238Z 13015G20KT 27/20 A2985 RMK A01 T02690201  RH  066%=      5-min Rain = 0
KCR2 262239Z 13016KT 27/20 A2985 RMK A01 T02700199  RH  065%=      5-min Rain = 0
KCR2 262240Z 14017KT 27/20 A2985 RMK A01 T02700200  RH  065%=      5-min Rain = 0
KCR2 262241Z 13015KT 27/20 A2985 RMK A01 T02700200  RH  066%=      5-min Rain = 0
KCR2 262242Z 14015KT 27/20 A2985 RMK A01 T02700201  RH  066%=      5-min Rain = 0
KCR2 262243Z 14013G18KT 27/20 A2985 RMK A01 T02690201  RH  066%=      5-min Rain = 0
KCR2 262244Z 14011KT 27/20 A2985 RMK A01 T02690201  RH  066%=      5-min Rain = 0
KCR2 262245Z 14012KT 27/20 A2985 RMK A01 T02690201  RH  066%=      5-min Rain = 0
KCR2 262246Z 14015KT 27/20 A2985 RMK A01 T02690199  RH  066%=      5-min Rain = 0
KCR2 262247Z 14015KT 27/20 A2985 RMK A01 T02680199  RH  066%=      5-min Rain = 0
KCR2 262248Z 14015KT 27/20 A2985 RMK A01 T02680198  RH  065%=      5-min Rain = 0
KCR2 262249Z 14014KT 27/20 A2985 RMK A01 T02690198  RH  065%=      5-min Rain = 0
KCR2 262250Z 15012KT 27/20 A2986 RMK A01 T02690199  RH  066%=      5-min Rain = 0
KCR2 262251Z 15014KT 27/20 A2986 RMK A01 T02680198  RH  065%=      5-min Rain = 0
KCR2 262252Z 15016KT 27/20 A2986 RMK A01 T02680197  RH  065%=      5-min Rain = 0
KCR2 262253Z 15015KT 27/20 A2986 RMK A01 T02680197  RH  065%=      5-min Rain = 0
KCR2 262254Z 15016KT 27/20 A2986 RMK A01 T02680197  RH  065%=      5-min Rain = 0
KCR2 262255Z 15016KT 27/20 A2986 RMK A01 T02680197  RH  065%=      5-min Rain = 0
KCR2 262256Z 15014KT 27/20 A2986 RMK A01 T02680197  RH  065%=      5-min Rain = 0
KCR2 262257Z 15018KT 27/20 A2986 RMK A01 T02680196  RH  065%=      5-min Rain = 0
KCR2 262258Z 14016KT 27/20 A2986 RMK A01 T02680196  RH  065%=      5-min Rain = 0
KCR2 262259Z 14016KT 27/20 A2986 RMK A01 T02680195  RH  064%=      5-min Rain = 0
KCR2 262300Z 15016KT 27/20 A2986 RMK A01 T02690196  RH  065%=      5-min Rain = 0
KCR2 262301Z 15015KT 27/20 A2986 RMK A01 T02680197  RH  065%=      5-min Rain = 0
KCR2 262302Z 14016KT 27/20 A2986 RMK A01 T02690196  RH  064%=      5-min Rain = 0
KCR2 262303Z 14014KT 27/20 A2986 RMK A01 T02690196  RH  065%=      5-min Rain = 0
KCR2 262304Z 14015KT 27/20 A2986 RMK A01 T02690196  RH  065%=      5-min Rain = 0
KCR2 262305Z 14013KT 27/20 A2986 RMK A01 T02680197  RH  065%=      5-min Rain = 0
KCR2 262306Z 14012KT 27/20 A2986 RMK A01 T02690197  RH  065%=      5-min Rain = 0
KCR2 262307Z 14014KT 27/20 A2986 RMK A01 T02690197  RH  065%=      5-min Rain = 0
KCR2 262308Z 14012KT 27/20 A2986 RMK A01 T02680197  RH  065%=      5-min Rain = 0
KCR2 262309Z 14011KT 27/20 A2986 RMK A01 T02690198  RH  065%=      5-min Rain = 0
KCR2 262310Z 15010KT 27/20 A2986 RMK A01 T02690196  RH  065%=      5-min Rain = 0
KCR2 262311Z 15009KT 27/20 A2986 RMK A01 T02690198  RH  065%=      5-min Rain = 0
KCR2 262312Z 15009KT 27/20 A2986 RMK A01 T02690199  RH  066%=      5-min Rain = 0
KCR2 262313Z 15009KT 27/20 A2986 RMK A01 T02690196  RH  064%=      5-min Rain = 0
KCR2 262314Z 15009KT 27/20 A2986 RMK A01 T02700198  RH  065%=      5-min Rain = 0
KCR2 262315Z 15012KT 27/20 A2986 RMK A01 T02700198  RH  065%=      5-min Rain = 0
KCR2 262316Z 16015KT 27/20 A2986 RMK A01 T02700195  RH  064%=      5-min Rain = 0
KCR2 262317Z 15013KT 27/20 A2986 RMK A01 T02700196  RH  064%=      5-min Rain = 0
KCR2 262318Z 16015KT 27/20 A2986 RMK A01 T02710195  RH  063%=      5-min Rain = 0
KCR2 262319Z 15016KT 27/19 A2986 RMK A01 T02710194  RH  063%=      5-min Rain = 0
KCR2 262320Z 15013G19KT 27/19 A2987 RMK A01 T02710194  RH  063%=      5-min Rain = 0
KCR2 262321Z 15011KT 27/20 A2987 RMK A01 T02710197  RH  064%=      5-min Rain = 0
KCR2 262322Z 14013KT 27/20 A2987 RMK A01 T02710196  RH  064%=      5-min Rain = 0
KCR2 262323Z 15015G20KT 27/20 A2987 RMK A01 T02710196  RH  064%=      5-min Rain = 0
KCR2 262324Z 16014KT 27/20 A2987 RMK A01 T02710196  RH  063%=      5-min Rain = 0
KCR2 262325Z 15012G18KT 27/20 A2987 RMK A01 T02710197  RH  064%=      5-min Rain = 0
KCR2 262326Z 16016KT 27/20 A2987 RMK A01 T02710196  RH  063%=      5-min Rain = 0
KCR2 262327Z 16015G20KT 27/20 A2987 RMK A01 T02710196  RH  063%=      5-min Rain = 0
KCR2 262328Z 15019G25KT 27/20 A2987 RMK A01 T02710196  RH  063%=      5-min Rain = 0
KCR2 262329Z 16015KT 27/19 A2987 RMK A01 T02710194  RH  063%=      5-min Rain = 0
KCR2 262330Z 16012KT 27/20 A2987 RMK A01 T02710197  RH  064%=      5-min Rain = 0
KCR2 262331Z 16014KT 27/20 A2987 RMK A01 T02710195  RH  063%=      5-min Rain = 0
KCR2 262332Z 16015KT 27/20 A2987 RMK A01 T02710196  RH  064%=      5-min Rain = 0
KCR2 262333Z 16013KT 27/20 A2987 RMK A01 T02710196  RH  063%=      5-min Rain = 0
KCR2 262334Z 16014KT 27/20 A2987 RMK A01 T02710196  RH  063%=      5-min Rain = 0
KCR2 262335Z 16014KT 27/20 A2987 RMK A01 T02710195  RH  063%=      5-min Rain = 0
KCR2 262336Z 16013KT 27/20 A2987 RMK A01 T02710195  RH  063%=      5-min Rain = 0
KCR2 262337Z 16009KT 27/20 A2987 RMK A01 T02710197  RH  064%=      5-min Rain = 0
KCR2 262338Z 15014KT 27/20 A2987 RMK A01 T02710196  RH  064%=      5-min Rain = 0
KCR2 262339Z 15013KT 27/20 A2987 RMK A01 T02710195  RH  063%=      5-min Rain = 0
KCR2 262340Z 16010KT 27/20 A2987 RMK A01 T02710197  RH  064%=      5-min Rain = 0
KCR2 262341Z 16010KT 27/20 A2987 RMK A01 T02710197  RH  064%=      5-min Rain = 0
KCR2 262342Z 16012KT 27/20 A2987 RMK A01 T02710195  RH  063%=      5-min Rain = 0
KCR2 262343Z 16010KT 27/20 A2987 RMK A01 T02710195  RH  063%=      5-min Rain = 0
KCR2 262344Z 16010KT 27/20 A2987 RMK A01 T02720197  RH  064%=      5-min Rain = 0
KCR2 262345Z 16012KT 27/20 A2987 RMK A01 T02720195  RH  063%=      5-min Rain = 0
KCR2 262346Z 16011KT 27/20 A2987 RMK A01 T02720195  RH  063%=      5-min Rain = 0
KCR2 262347Z 16009KT 27/19 A2987 RMK A01 T02730194  RH  062%=      5-min Rain = 0
KCR2 262348Z 15009KT 27/20 A2987 RMK A01 T02730197  RH  063%=      5-min Rain = 0
KCR2 262349Z 16010KT 27/20 A2987 RMK A01 T02740195  RH  062%=      5-min Rain = 0
KCR2 262350Z 16014KT 27/19 A2987 RMK A01 T02740193  RH  061%=      5-min Rain = 0
KCR2 262351Z 16013KT 27/19 A2987 RMK A01 T02740192  RH  061%=      5-min Rain = 0
KCR2 262352Z 16012KT 28/20 A2987 RMK A01 T02750196  RH  062%=      5-min Rain = 0
KCR2 262353Z 17012KT 28/20 A2987 RMK A01 T02750196  RH  062%=      5-min Rain = 0
KCR2 262354Z 17012KT 28/20 A2987 RMK A01 T02750195  RH  062%=      5-min Rain = 0
KCR2 262355Z 16011KT 28/20 A2987 RMK A01 T02750195  RH  062%=      5-min Rain = 0
KCR2 262356Z 17014KT 27/19 A2987 RMK A01 T02740194  RH  062%=      5-min Rain = 0
KCR2 262357Z 17012KT 27/20 A2987 RMK A01 T02740195  RH  062%=      5-min Rain = 0
KCR2 262358Z 16014G19KT 27/20 A2987 RMK A01 T02740195  RH  062%=      5-min Rain = 0
KCR2 262359Z 16016KT 27/19 A2987 RMK A01 T02740194  RH  062%=      5-min Rain = 0
KCR2 270000Z 16015KT 27/19 A2987 RMK A01 T02730193  RH  062%=      5-min Rain = 0
KCR2 270001Z 16016G22KT 27/19 A2987 RMK A01 T02720194  RH  062%=      5-min Rain = 0
KCR2 270002Z 16018G23KT 27/19 A2987 RMK A01 T02720193  RH  062%=      5-min Rain = 0
KCR2 270003Z 17015KT 27/19 A2987 RMK A01 T02720193  RH  062%=      5-min Rain = 0
KCR2 270004Z 17015KT 27/19 A2986 RMK A01 T02720192  RH  062%=      5-min Rain = 0
KCR2 270005Z 17013KT 27/19 A2986 RMK A01 T02720194  RH  063%=      5-min Rain = 0
KCR2 270006Z 17014KT 27/19 A2986 RMK A01 T02720194  RH  062%=      5-min Rain = 0
KCR2 270007Z 16012G17KT 27/19 A2986 RMK A01 T02720194  RH  062%=      5-min Rain = 0
KCR2 270008Z 15012KT 27/20 A2986 RMK A01 T02720196  RH  063%=      5-min Rain = 0
KCR2 270009Z 15015KT 27/20 A2986 RMK A01 T02730196  RH  063%=      5-min Rain = 0
KCR2 270010Z 16016KT 27/19 A2986 RMK A01 T02720194  RH  062%=      5-min Rain = 0
KCR2 270011Z 15014KT 27/20 A2986 RMK A01 T02710195  RH  063%=      5-min Rain = 0
KCR2 270012Z 16015KT 27/20 A2986 RMK A01 T02710196  RH  063%=      5-min Rain = 0
KCR2 270013Z 16015KT 27/20 A2986 RMK A01 T02710195  RH  063%=      5-min Rain = 0
KCR2 270014Z 16013KT 27/20 A2986 RMK A01 T02710196  RH  063%=      5-min Rain = 0
KCR2 270015Z 16016G22KT 27/19 A2986 RMK A01 T02720193  RH  062%=      5-min Rain = 0
KCR2 270016Z 16020G26KT 27/20 A2986 RMK A01 T02720195  RH  063%=      5-min Rain = 0
KCR2 270017Z 16023KT 27/19 A2986 RMK A01 T02730193  RH  062%=      5-min Rain = 0
KCR2 270018Z 16020G27KT 27/19 A2986 RMK A01 T02730193  RH  062%=      5-min Rain = 0
KCR2 270019Z 16020G25KT 27/19 A2986 RMK A01 T02720194  RH  062%=      5-min Rain = 0
KCR2 270020Z 16021KT 27/19 A2986 RMK A01 T02720193  RH  062%=      5-min Rain = 0
KCR2 270021Z 15020G25KT 27/19 A2985 RMK A01 T02730194  RH  062%=      5-min Rain = 0
KCR2 270022Z 16019KT 27/19 A2985 RMK A01 T02730193  RH  062%=      5-min Rain = 0
KCR2 270023Z 15020KT 27/20 A2985 RMK A01 T02730195  RH  062%=      5-min Rain = 0
KCR2 270024Z 16022KT 27/19 A2985 RMK A01 T02720193  RH  062%=      5-min Rain = 0
KCR2 270025Z 16017KT 27/19 A2985 RMK A01 T02710194  RH  063%=      5-min Rain = 0
KCR2 270026Z 16023G28KT 27/19 A2985 RMK A01 T02710194  RH  063%=      5-min Rain = 0
KCR2 270027Z 16023KT 27/19 A2985 RMK A01 T02710193  RH  062%=      5-min Rain = 0
KCR2 270028Z 16023G29KT 27/19 A2985 RMK A01 T02710193  RH  062%=      5-min Rain = 0
KCR2 270029Z 15019KT 27/19 A2985 RMK A01 T02710194  RH  063%=      5-min Rain = 0
KCR2 270030Z 16023G30KT 27/19 A2985 RMK A01 T02700193  RH  063%=      5-min Rain = 0
KCR2 270031Z 16018KT 27/19 A2985 RMK A01 T02700192  RH  062%=      5-min Rain = 0
KCR2 270032Z 15017G23KT 27/19 A2985 RMK A01 T02700193  RH  063%=      5-min Rain = 0
KCR2 270033Z 16019G24KT 27/19 A2985 RMK A01 T02700193  RH  063%=      5-min Rain = 0
KCR2 270034Z 16020KT 27/19 A2985 RMK A01 T02700192  RH  062%=      5-min Rain = 0
KCR2 270035Z 17019G25KT 27/19 A2985 RMK A01 T02700193  RH  062%=      5-min Rain = 0
KCR2 270036Z 17022G27KT 27/19 A2985 RMK A01 T02710192  RH  062%=      5-min Rain = 0
KCR2 270037Z 16022G30KT 27/19 A2985 RMK A01 T02710191  RH  062%=      5-min Rain = 0
KCR2 270038Z 16023KT 27/19 A2985 RMK A01 T02710191  RH  062%=      5-min Rain = 0
KCR2 270039Z 16022G27KT 27/19 A2985 RMK A01 T02710191  RH  062%=      5-min Rain = 0
KCR2 270040Z 16024KT 27/19 A2985 RMK A01 T02700191  RH  062%=      5-min Rain = 0
KCR2 270041Z 16024G29KT 27/19 A2985 RMK A01 T02700191  RH  062%=      5-min Rain = 0
KCR2 270042Z 15020G26KT 27/19 A2985 RMK A01 T02700190  RH  061%=      5-min Rain = 0
KCR2 270043Z 15021KT 27/19 A2985 RMK A01 T02700191  RH  062%=      5-min Rain = 0
KCR2 270044Z 16021G28KT 27/19 A2985 RMK A01 T02700190  RH  061%=      5-min Rain = 0
KCR2 270045Z 16023KT 27/19 A2985 RMK A01 T02700189  RH  061%=      5-min Rain = 0
KCR2 270046Z 17021G26KT 27/19 A2985 RMK A01 T02710190  RH  061%=      5-min Rain = 0
KCR2 270047Z 17021KT 27/19 A2985 RMK A01 T02700189  RH  061%=      5-min Rain = 0
KCR2 270048Z 16019KT 27/19 A2985 RMK A01 T02700190  RH  061%=      5-min Rain = 0
KCR2 270049Z 16019KT 27/19 A2985 RMK A01 T02710190  RH  061%=      5-min Rain = 0
KCR2 270050Z 16017G23KT 27/19 A2985 RMK A01 T02700191  RH  062%=      5-min Rain = 0
KCR2 270051Z 16020KT 27/19 A2985 RMK A01 T02700190  RH  061%=      5-min Rain = 0
KCR2 270052Z 16021G26KT 27/19 A2985 RMK A01 T02700189  RH  061%=      5-min Rain = 0
KCR2 270053Z 16027KT 27/19 A2985 RMK A01 T02700187  RH  060%=      5-min Rain = 0
KCR2 270054Z 16020KT 27/19 A2985 RMK A01 T02700188  RH  061%=      5-min Rain = 0
KCR2 270055Z 16022KT 27/19 A2985 RMK A01 T02710189  RH  061%=      5-min Rain = 0
KCR2 270056Z 16023KT 27/19 A2985 RMK A01 T02700188  RH  061%=      5-min Rain = 0
KCR2 270057Z 16022G27KT 27/19 A2985 RMK A01 T02700187  RH  060%=      5-min Rain = 0
KCR2 270058Z 16021G27KT 27/19 A2985 RMK A01 T02700187  RH  060%=      5-min Rain = 0
KCR2 270059Z 16018KT 27/19 A2985 RMK A01 T02700188  RH  061%=      5-min Rain = 0
KCR2 270100Z 16022KT 27/19 A2985 RMK A01 T02700188  RH  061%=      5-min Rain = 0
KCR2 270101Z 16022G30KT 27/19 A2985 RMK A01 T02700187  RH  060%=      5-min Rain = 0
KCR2 270102Z 16023KT 27/19 A2985 RMK A01 T02690188  RH  061%=      5-min Rain = 0
KCR2 270103Z 16023KT 27/19 A2985 RMK A01 T02690187  RH  061%=      5-min Rain = 0
KCR2 270104Z 16023G31KT 27/19 A2985 RMK A01 T02690186  RH  061%=      5-min Rain = 0
KCR2 270105Z 16026KT 27/19 A2985 RMK A01 T02690185  RH  060%=      5-min Rain = 0
KCR2 270106Z 16021KT 27/19 A2985 RMK A01 T02690186  RH  060%=      5-min Rain = 0
KCR2 270107Z 16021KT 27/19 A2985 RMK A01 T02690186  RH  060%=      5-min Rain = 0
KCR2 270108Z 16025G35KT 27/19 A2985 RMK A01 T02690186  RH  060%=      5-min Rain = 0
KCR2 270109Z 16027KT 27/19 A2985 RMK A01 T02690185  RH  060%=      5-min Rain = 0
KCR2 270110Z 16023G28KT 27/19 A2985 RMK A01 T02690186  RH  060%=      5-min Rain = 0
KCR2 270111Z 17023KT 27/19 A2985 RMK A01 T02690186  RH  060%=      5-min Rain = 0
KCR2 270112Z 17021KT 27/19 A2985 RMK A01 T02680185  RH  060%=      5-min Rain = 0
KCR2 270113Z 16020KT 27/19 A2985 RMK A01 T02680186  RH  061%=      5-min Rain = 0
KCR2 270114Z 16020KT 27/19 A2985 RMK A01 T02680186  RH  061%=      5-min Rain = 0
KCR2 270115Z 16020KT 27/19 A2985 RMK A01 T02680186  RH  061%=      5-min Rain = 0
KCR2 270116Z 16021G30KT 27/19 A2985 RMK A01 T02670186  RH  061%=      5-min Rain = 0
KCR2 270117Z 17025KT 27/19 A2985 RMK A01 T02670185  RH  060%=      5-min Rain = 0
KCR2 270118Z 17025KT 27/18 A2985 RMK A01 T02670184  RH  060%=      5-min Rain = 0
KCR2 270119Z 16023G28KT 27/19 A2985 RMK A01 T02670185  RH  061%=      5-min Rain = 0
KCR2 270120Z 16022G27KT 27/19 A2985 RMK A01 T02670185  RH  061%=      5-min Rain = 0
KCR2 270121Z 17023G28KT 27/18 A2985 RMK A01 T02660184  RH  061%=      5-min Rain = 0
KCR2 270122Z 17019G26KT 27/19 A2985 RMK A01 T02660185  RH  061%=      5-min Rain = 0
KCR2 270123Z 17019KT 27/19 A2985 RMK A01 T02660185  RH  061%=      5-min Rain = 0
KCR2 270124Z 17020G25KT 27/19 A2985 RMK A01 T02660185  RH  061%=      5-min Rain = 0
KCR2 270125Z 16020G25KT 27/19 A2985 RMK A01 T02650185  RH  061%=      5-min Rain = 0
KCR2 270126Z 16020KT 27/18 A2985 RMK A01 T02650184  RH  061%=      5-min Rain = 0
KCR2 270127Z 17018G23KT 27/19 A2985 RMK A01 T02650185  RH  062%=      5-min Rain = 0
KCR2 270128Z 17018KT 26/19 A2985 RMK A01 T02640185  RH  062%=      5-min Rain = 0
KCR2 270129Z 17018KT 26/18 A2985 RMK A01 T02640184  RH  062%=      5-min Rain = 0
KCR2 270130Z 17021KT 26/18 A2985 RMK A01 T02630184  RH  062%=      5-min Rain = 0
KCR2 270131Z 16022G27KT 26/18 A2985 RMK A01 T02640183  RH  061%=      5-min Rain = 0
KCR2 270132Z 16020KT 26/18 A2985 RMK A01 T02640183  RH  061%=      5-min Rain = 0
KCR2 270133Z 17020G27KT 26/18 A2985 RMK A01 T02640184  RH  061%=      5-min Rain = 0
KCR2 270134Z 17019G24KT 26/18 A2985 RMK A01 T02640184  RH  061%=      5-min Rain = 0
KCR2 270135Z 17018G23KT 26/18 A2985 RMK A01 T02630184  RH  062%=      5-min Rain = 0
KCR2 270136Z 17017KT 26/18 A2985 RMK A01 T02620183  RH  062%=      5-min Rain = 0
KCR2 270137Z 17021KT 26/18 A2985 RMK A01 T02620183  RH  062%=      5-min Rain = 0
KCR2 270138Z 17023G29KT 26/18 A2985 RMK A01 T02620182  RH  062%=      5-min Rain = 0
KCR2 270139Z 17025G30KT 26/18 A2985 RMK A01 T02620181  RH  061%=      5-min Rain = 0
KCR2 270140Z 16026KT 26/18 A2985 RMK A01 T02640181  RH  060%=      5-min Rain = 0
KCR2 270141Z 17027KT 26/18 A2985 RMK A01 T02640181  RH  060%=      5-min Rain = 0
KCR2 270142Z 17025KT 26/18 A2985 RMK A01 T02640181  RH  060%=      5-min Rain = 0
KCR2 270143Z 17024KT 26/18 A2985 RMK A01 T02640181  RH  060%=      5-min Rain = 0
KCR2 270144Z 17021G26KT 26/18 A2985 RMK A01 T02640181  RH  060%=      5-min Rain = 0
KCR2 270145Z 17021KT 26/18 A2985 RMK A01 T02640182  RH  061%=      5-min Rain = 0
KCR2 270146Z 17023KT 26/18 A2985 RMK A01 T02620182  RH  061%=      5-min Rain = 0
KCR2 270147Z 17022G29KT 26/18 A2985 RMK A01 T02630181  RH  061%=      5-min Rain = 0
KCR2 270148Z 17022KT 26/18 A2985 RMK A01 T02630181  RH  061%=      5-min Rain = 0
KCR2 270149Z 17021G26KT 26/18 A2985 RMK A01 T02620181  RH  061%=      5-min Rain = 0
KCR2 270150Z 17022KT 26/18 A2985 RMK A01 T02620181  RH  061%=      5-min Rain = 0
KCR2 270151Z 17022KT 26/18 A2985 RMK A01 T02630181  RH  061%=      5-min Rain = 0
KCR2 270152Z 18024G30KT 26/18 A2985 RMK A01 T02630181  RH  061%=      5-min Rain = 0
KCR2 270153Z 18022G29KT 26/18 A2985 RMK A01 T02630180  RH  061%=      5-min Rain = 0
KCR2 270154Z 17020G27KT 26/18 A2985 RMK A01 T02620181  RH  061%=      5-min Rain = 0
KCR2 270155Z 17022G28KT 26/18 A2985 RMK A01 T02620181  RH  061%=      5-min Rain = 0
KCR2 270156Z 18024KT 26/18 A2985 RMK A01 T02610180  RH  061%=      5-min Rain = 0
KCR2 270157Z 17022G30KT 26/18 A2985 RMK A01 T02620180  RH  061%=      5-min Rain = 0
KCR2 270158Z 17021G27KT 26/18 A2985 RMK A01 T02620181  RH  061%=      5-min Rain = 0
KCR2 270159Z 18023KT 26/18 A2985 RMK A01 T02600181  RH  061%=      5-min Rain = 0
KCR2 270200Z 17024G30KT 26/18 A2985 RMK A01 T02600180  RH  061%=      5-min Rain = 0
KCR2 270201Z 17024KT 26/18 A2985 RMK A01 T02610180  RH  061%=      5-min Rain = 0
KCR2 270202Z 18022KT 26/18 A2985 RMK A01 T02610181  RH  061%=      5-min Rain = 0
KCR2 270203Z 17023KT 26/18 A2985 RMK A01 T02600180  RH  061%=      5-min Rain = 0
KCR2 270204Z 18020KT 26/18 A2985 RMK A01 T02600181  RH  062%=      5-min Rain = 0
KCR2 270205Z 18022G28KT 26/18 A2985 RMK A01 T02600181  RH  062%=      5-min Rain = 0
KCR2 270206Z 18023KT 26/18 A2985 RMK A01 T02590180  RH  062%=      5-min Rain = 0
KCR2 270207Z 18020KT 26/18 A2985 RMK A01 T02600181  RH  062%=      5-min Rain = 0
KCR2 270208Z 18020KT 26/18 A2985 RMK A01 T02600181  RH  062%=      5-min Rain = 0
KCR2 270209Z 18024KT 26/18 A2985 RMK A01 T02590181  RH  062%=      5-min Rain = 0
KCR2 270210Z 18022KT 26/18 A2985 RMK A01 T02590180  RH  062%=      5-min Rain = 0
KCR2 270211Z 17022KT 26/18 A2985 RMK A01 T02590181  RH  062%=      5-min Rain = 0
KCR2 270212Z 18019KT 26/18 A2985 RMK A01 T02590181  RH  062%=      5-min Rain = 0
KCR2 270213Z 18020G27KT 26/18 A2985 RMK A01 T02590181  RH  062%=      5-min Rain = 0
KCR2 270214Z 18021G26KT 26/18 A2985 RMK A01 T02580181  RH  062%=      5-min Rain = 0
KCR2 270215Z 18022KT 26/18 A2985 RMK A01 T02580181  RH  062%=      5-min Rain = 0
KCR2 270216Z 18021G28KT 26/18 A2985 RMK A01 T02590181  RH  062%=      5-min Rain = 0
KCR2 270217Z 18020KT 26/18 A2985 RMK A01 T02580182  RH  063%=      5-min Rain = 0
KCR2 270218Z 18021KT 26/18 A2985 RMK A01 T02570181  RH  063%=      5-min Rain = 0
KCR2 270219Z 17020G26KT 26/18 A2985 RMK A01 T02570181  RH  063%=      5-min Rain = 0
KCR2 270220Z 18019G24KT 26/18 A2985 RMK A01 T02570182  RH  063%=      5-min Rain = 0
KCR2 270221Z 18022KT 26/18 A2985 RMK A01 T02570181  RH  063%=      5-min Rain = 0
KCR2 270222Z 17018G25KT 26/18 A2985 RMK A01 T02570181  RH  063%=      5-min Rain = 0
KCR2 270223Z 18022KT 26/18 A2985 RMK A01 T02570181  RH  063%=      5-min Rain = 0
KCR2 270224Z 18022KT 26/18 A2985 RMK A01 T02570181  RH  063%=      5-min Rain = 0
KCR2 270225Z 18021KT 26/18 A2985 RMK A01 T02570181  RH  063%=      5-min Rain = 0
KCR2 270226Z 17022KT 26/18 A2985 RMK A01 T02570181  RH  063%=      5-min Rain = 0
KCR2 270227Z 17019KT 26/18 A2985 RMK A01 T02570182  RH  063%=      5-min Rain = 0
KCR2 270228Z 17020KT 26/18 A2985 RMK A01 T02560181  RH  063%=      5-min Rain = 0
KCR2 270229Z 17023KT 26/18 A2985 RMK A01 T02560181  RH  063%=      5-min Rain = 0
KCR2 270230Z 17022G27KT 26/18 A2985 RMK A01 T02560181  RH  063%=      5-min Rain = 0
KCR2 270231Z 17018KT 26/18 A2985 RMK A01 T02560181  RH  063%=      5-min Rain = 0
KCR2 270232Z 17023KT 26/18 A2985 RMK A01 T02550181  RH  064%=      5-min Rain = 0
KCR2 270233Z 17022G27KT 26/18 A2985 RMK A01 T02550181  RH  063%=      5-min Rain = 0
KCR2 270234Z 18020KT 26/18 A2985 RMK A01 T02550180  RH  063%=      5-min Rain = 0
KCR2 270235Z 18020G25KT 26/18 A2985 RMK A01 T02550181  RH  063%=      5-min Rain = 0
KCR2 270236Z 18022G29KT 26/18 A2985 RMK A01 T02550181  RH  064%=      5-min Rain = 0
KCR2 270237Z 18019G24KT 25/18 A2985 RMK A01 T02540181  RH  064%=      5-min Rain = 0
KCR2 270238Z 18021G27KT 25/18 A2985 RMK A01 T02540180  RH  064%=      5-min Rain = 0
KCR2 270239Z 18020KT 26/18 A2985 RMK A01 T02550180  RH  063%=      5-min Rain = 0
KCR2 270240Z 18021KT 26/18 A2985 RMK A01 T02550180  RH  063%=      5-min Rain = 0
KCR2 270241Z 18020G25KT 26/18 A2985 RMK A01 T02560180  RH  063%=      5-min Rain = 0
KCR2 270242Z 17020KT 26/18 A2985 RMK A01 T02550180  RH  063%=      5-min Rain = 0
KCR2 270243Z 18019G24KT 26/18 A2985 RMK A01 T02550180  RH  063%=      5-min Rain = 0
KCR2 270244Z 18021KT 26/18 A2985 RMK A01 T02550180  RH  063%=      5-min Rain = 0
KCR2 270245Z 17019KT 26/18 A2985 RMK A01 T02550181  RH  064%=      5-min Rain = 0
KCR2 270246Z 18020KT 25/18 A2985 RMK A01 T02540180  RH  063%=      5-min Rain = 0
KCR2 270247Z 18019KT 25/18 A2985 RMK A01 T02540180  RH  064%=      5-min Rain = 0
KCR2 270248Z 17016KT 25/18 A2985 RMK A01 T02540181  RH  064%=      5-min Rain = 0
KCR2 270249Z 18017KT 25/18 A2985 RMK A01 T02520181  RH  065%=      5-min Rain = 0
KCR2 270250Z 17017KT 25/18 A2985 RMK A01 T02520181  RH  065%=      5-min Rain = 0
KCR2 270251Z 18017KT 25/18 A2985 RMK A01 T02520182  RH  065%=      5-min Rain = 0
KCR2 270252Z 18020G25KT 25/18 A2985 RMK A01 T02510181  RH  065%=      5-min Rain = 0
KCR2 270253Z 18018KT 25/18 A2985 RMK A01 T02520181  RH  065%=      5-min Rain = 0
KCR2 270254Z 18019KT 25/18 A2985 RMK A01 T02520181  RH  065%=      5-min Rain = 0
KCR2 270255Z 17017KT 25/18 A2985 RMK A01 T02510181  RH  065%=      5-min Rain = 0
KCR2 270256Z 18017KT 25/18 A2985 RMK A01 T02520182  RH  065%=      5-min Rain = 0
KCR2 270257Z 18018KT 25/18 A2985 RMK A01 T02510181  RH  065%=      5-min Rain = 0
KCR2 270258Z 18018KT 25/18 A2985 RMK A01 T02510181  RH  065%=      5-min Rain = 0
KCR2 270259Z 17017KT 25/18 A2985 RMK A01 T02510180  RH  065%=      5-min Rain = 0
KCR2 270300Z 18015KT 25/18 A2985 RMK A01 T02510181  RH  065%=      5-min Rain = 0
KCR2 270301Z 17017KT 25/18 A2985 RMK A01 T02500181  RH  065%=      5-min Rain = 0
KCR2 270302Z 18017KT 25/18 A2985 RMK A01 T02500181  RH  066%=      5-min Rain = 0
KCR2 270303Z 18016KT 25/18 A2985 RMK A01 T02500181  RH  065%=      5-min Rain = 0
KCR2 270304Z 18019KT 25/18 A2985 RMK A01 T02500180  RH  065%=      5-min Rain = 0
KCR2 270305Z 18020KT 25/18 A2985 RMK A01 T02490179  RH  065%=      5-min Rain = 0
KCR2 270306Z 18020KT 25/18 A2985 RMK A01 T02500178  RH  064%=      5-min Rain = 0
KCR2 270307Z 18019KT 25/18 A2985 RMK A01 T02510179  RH  064%=      5-min Rain = 0
KCR2 270308Z 18020KT 25/18 A2985 RMK A01 T02510179  RH  064%=      5-min Rain = 0
KCR2 270309Z 18018G23KT 25/18 A2986 RMK A01 T02500178  RH  064%=      5-min Rain = 0
KCR2 270310Z 18020G25KT 25/18 A2985 RMK A01 T02500178  RH  064%=      5-min Rain = 0
KCR2 270311Z 18017KT 25/18 A2985 RMK A01 T02500178  RH  064%=      5-min Rain = 0
KCR2 270312Z 18018KT 25/18 A2986 RMK A01 T02500178  RH  064%=      5-min Rain = 0
KCR2 270313Z 18017G22KT 25/18 A2986 RMK A01 T02490178  RH  065%=      5-min Rain = 0
KCR2 270314Z 18019G24KT 25/18 A2985 RMK A01 T02480178  RH  065%=      5-min Rain = 0
KCR2 270315Z 18018KT 25/18 A2985 RMK A01 T02480177  RH  065%=      5-min Rain = 0
KCR2 270316Z 18021G29KT 25/18 A2985 RMK A01 T02480178  RH  065%=      5-min Rain = 0
KCR2 270317Z 18020KT 25/18 A2985 RMK A01 T02490177  RH  065%=      5-min Rain = 0
KCR2 270318Z 18018KT 25/18 A2985 RMK A01 T02490178  RH  065%=      5-min Rain = 0
KCR2 270319Z 18020G27KT 25/18 A2985 RMK A01 T02480178  RH  065%=      5-min Rain = 0
KCR2 270320Z 18020G25KT 25/18 A2986 RMK A01 T02480178  RH  065%=      5-min Rain = 0
KCR2 270321Z 18020KT 25/18 A2986 RMK A01 T02480178  RH  065%=      5-min Rain = 0
KCR2 270322Z 18019KT 25/18 A2986 RMK A01 T02470178  RH  065%=      5-min Rain = 0
KCR2 270323Z 18021G26KT 25/18 A2986 RMK A01 T02480178  RH  065%=      5-min Rain = 0
KCR2 270324Z 17021KT 25/18 A2986 RMK A01 T02480179  RH  066%=      5-min Rain = 0
KCR2 270325Z 18024KT 25/18 A2986 RMK A01 T02470179  RH  066%=      5-min Rain = 0
KCR2 270326Z 18022G27KT 25/18 A2986 RMK A01 T02470178  RH  065%=      5-min Rain = 0
KCR2 270327Z 18023KT 25/18 A2986 RMK A01 T02480179  RH  066%=      5-min Rain = 0
KCR2 270328Z 18021G27KT 25/18 A2986 RMK A01 T02470179  RH  066%=      5-min Rain = 0
KCR2 270329Z 18022G27KT 25/18 A2986 RMK A01 T02470179  RH  066%=      5-min Rain = 0
KCR2 270330Z 18021KT 25/18 A2986 RMK A01 T02470179  RH  066%=      5-min Rain = 0
KCR2 270331Z 18023G28KT 25/18 A2986 RMK A01 T02470180  RH  066%=      5-min Rain = 0
KCR2 270332Z 17024KT 25/18 A2986 RMK A01 T02470180  RH  066%=      5-min Rain = 0
KCR2 270333Z 18020G25KT 25/18 A2986 RMK A01 T02470179  RH  066%=      5-min Rain = 0
KCR2 270334Z 17023KT 25/18 A2986 RMK A01 T02470180  RH  066%=      5-min Rain = 0
KCR2 270335Z 18025G33KT 25/18 A2986 RMK A01 T02470180  RH  066%=      5-min Rain = 0
KCR2 270336Z 18023G28KT 25/18 A2986 RMK A01 T02470180  RH  066%=      5-min Rain = 0
KCR2 270337Z 17024G29KT 25/18 A2986 RMK A01 T02470181  RH  066%=      5-min Rain = 0
KCR2 270338Z 17020G25KT 25/18 A2986 RMK A01 T02470181  RH  067%=      5-min Rain = 0
KCR2 270339Z 18024G29KT 25/18 A2986 RMK A01 T02460181  RH  067%=      5-min Rain = 0
KCR2 270340Z 18024KT 25/18 A2986 RMK A01 T02460181  RH  067%=      5-min Rain = 0
KCR2 270341Z 18025KT 25/18 A2986 RMK A01 T02460181  RH  067%=      5-min Rain = 0
KCR2 270342Z 17022G27KT 25/18 A2986 RMK A01 T02460181  RH  067%=      5-min Rain = 0
KCR2 270343Z 18024KT 25/18 A2986 RMK A01 T02460182  RH  067%=      5-min Rain = 0
KCR2 270344Z 17027G32KT 25/18 A2986 RMK A01 T02460182  RH  068%=      5-min Rain = 0
KCR2 270345Z 18023KT 25/18 A2986 RMK A01 T02460182  RH  067%=      5-min Rain = 0
KCR2 270346Z 18023KT 25/18 A2986 RMK A01 T02460182  RH  068%=      5-min Rain = 0
KCR2 270347Z 18027G33KT 25/18 A2986 RMK A01 T02460182  RH  068%=      5-min Rain = 0
KCR2 270348Z 18024G29KT 25/18 A2986 RMK A01 T02460183  RH  068%=      5-min Rain = 0
KCR2 270349Z 18023G28KT 25/18 A2986 RMK A01 T02460183  RH  068%=      5-min Rain = 0
KCR2 270350Z 18024G30KT 25/18 A2986 RMK A01 T02460183  RH  068%=      5-min Rain = 0
KCR2 270351Z 18025KT 25/18 A2986 RMK A01 T02450183  RH  068%=      5-min Rain = 0
KCR2 270352Z 18023KT 25/18 A2986 RMK A01 T02460183  RH  068%=      5-min Rain = 0
KCR2 270353Z 17024KT 25/18 A2986 RMK A01 T02460184  RH  068%=      5-min Rain = 0
KCR2 270354Z 18020G25KT 25/18 A2986 RMK A01 T02460184  RH  069%=      5-min Rain = 0
KCR2 270355Z 18022KT 25/18 A2986 RMK A01 T02450184  RH  069%=      5-min Rain = 0
KCR2 270356Z 18026G32KT 25/18 A2986 RMK A01 T02450184  RH  069%=      5-min Rain = 0
KCR2 270357Z 17025G31KT 25/18 A2986 RMK A01 T02450184  RH  069%=      5-min Rain = 0
KCR2 270358Z 18023KT 25/18 A2986 RMK A01 T02450184  RH  069%=      5-min Rain = 0
KCR2 270359Z 17021G28KT 25/19 A2986 RMK A01 T02450185  RH  069%=      5-min Rain = 0
KCR2 270400Z 18023KT 24/18 A2986 RMK A01 T02440184  RH  069%=      5-min Rain = 0
KCR2 270401Z 18022G28KT 25/18 A2986 RMK A01 T02450184  RH  069%=      5-min Rain = 0
KCR2 270402Z 18021KT 25/19 A2986 RMK A01 T02450185  RH  069%=      5-min Rain = 0
KCR2 270403Z 18024KT 25/19 A2985 RMK A01 T02450185  RH  069%=      5-min Rain = 0
KCR2 270404Z 17022G30KT 25/19 A2986 RMK A01 T02450185  RH  069%=      5-min Rain = 0
KCR2 270405Z 18025KT 25/19 A2985 RMK A01 T02450185  RH  069%=      5-min Rain = 0
KCR2 270406Z 18022G27KT 25/19 A2986 RMK A01 T02450185  RH  069%=      5-min Rain = 0
KCR2 270407Z 18022G27KT 25/19 A2985 RMK A01 T02450185  RH  069%=      5-min Rain = 0
KCR2 270408Z 18023G30KT 25/19 A2986 RMK A01 T02450185  RH  069%=      5-min Rain = 0
KCR2 270409Z 18027G34KT 25/19 A2985 RMK A01 T02450185  RH  069%=      5-min Rain = 0
KCR2 270410Z 18023KT 25/19 A2985 RMK A01 T02460185  RH  069%=      5-min Rain = 0
KCR2 270411Z 18021G30KT 25/19 A2986 RMK A01 T02460185  RH  069%=      5-min Rain = 0
KCR2 270412Z 18022G27KT 25/19 A2986 RMK A01 T02460186  RH  069%=      5-min Rain = 0
KCR2 270413Z 18025KT 25/19 A2985 RMK A01 T02450185  RH  069%=      5-min Rain = 0
KCR2 270414Z 18023KT 25/19 A2985 RMK A01 T02460186  RH  069%=      5-min Rain = 0
KCR2 270415Z 17024G30KT 25/19 A2986 RMK A01 T02460186  RH  069%=      5-min Rain = 0
KCR2 270416Z 18024G30KT 25/19 A2985 RMK A01 T02460186  RH  069%=      5-min Rain = 0
KCR2 270417Z 18023G29KT 25/19 A2985 RMK A01 T02470186  RH  069%=      5-min Rain = 0
KCR2 270418Z 18019KT 25/19 A2986 RMK A01 T02470186  RH  069%=      5-min Rain = 0
KCR2 270419Z 17024KT 25/19 A2985 RMK A01 T02460186  RH  069%=      5-min Rain = 0
KCR2 270420Z 18021KT 25/19 A2985 RMK A01 T02460186  RH  069%=      5-min Rain = 0
KCR2 270421Z 18020KT 25/19 A2985 RMK A01 T02460187  RH  069%=      5-min Rain = 0
KCR2 270422Z 17019KT 25/19 A2985 RMK A01 T02460187  RH  070%=      5-min Rain = 0
KCR2 270423Z 17020KT 25/19 A2985 RMK A01 T02460187  RH  070%=      5-min Rain = 0
KCR2 270424Z 17021G27KT 25/19 A2985 RMK A01 T02460187  RH  070%=      5-min Rain = 0
KCR2 270425Z 18023KT 25/19 A2985 RMK A01 T02450186  RH  070%=      5-min Rain = 0
KCR2 270426Z 17024KT 25/19 A2985 RMK A01 T02460186  RH  069%=      5-min Rain = 0
KCR2 270427Z 18022G29KT 25/19 A2985 RMK A01 T02470187  RH  069%=      5-min Rain = 0
KCR2 270428Z 18024G29KT 25/19 A2985 RMK A01 T02470187  RH  069%=      5-min Rain = 0
KCR2 270429Z 18024KT 25/19 A2985 RMK A01 T02470186  RH  069%=      5-min Rain = 0
KCR2 270430Z 18020G27KT 25/19 A2986 RMK A01 T02480187  RH  069%=      5-min Rain = 0
KCR2 270431Z 17022G31KT 25/19 A2985 RMK A01 T02470187  RH  069%=      5-min Rain = 0
KCR2 270432Z 18020G25KT 25/19 A2986 RMK A01 T02470187  RH  069%=      5-min Rain = 0
KCR2 270433Z 18022KT 25/19 A2985 RMK A01 T02470187  RH  069%=      5-min Rain = 0
KCR2 270434Z 18021G26KT 25/19 A2985 RMK A01 T02460187  RH  069%=      5-min Rain = 0
KCR2 270435Z 18024G29KT 25/19 A2985 RMK A01 T02460187  RH  070%=      5-min Rain = 0
KCR2 270436Z 17023KT 25/19 A2985 RMK A01 T02470187  RH  069%=      5-min Rain = 0
KCR2 270437Z 17023KT 25/19 A2985 RMK A01 T02470187  RH  069%=      5-min Rain = 0
KCR2 270438Z 17025KT 25/19 A2985 RMK A01 T02470187  RH  069%=      5-min Rain = 0
KCR2 270439Z 18023KT 25/19 A2985 RMK A01 T02470187  RH  069%=      5-min Rain = 0
KCR2 270440Z 18024KT 25/19 A2985 RMK A01 T02470187  RH  069%=      5-min Rain = 0
KCR2 270441Z 18022G30KT 25/19 A2985 RMK A01 T02470187  RH  069%=      5-min Rain = 0
KCR2 270442Z 17025G30KT 25/19 A2985 RMK A01 T02470187  RH  069%=      5-min Rain = 0
KCR2 270443Z 17022KT 25/19 A2985 RMK A01 T02470187  RH  069%=      5-min Rain = 0
KCR2 270444Z 18021G29KT 25/19 A2985 RMK A01 T02460187  RH  070%=      5-min Rain = 0
KCR2 270445Z 18023KT 25/19 A2985 RMK A01 T02460188  RH  070%=      5-min Rain = 0
KCR2 270446Z 18021G27KT 25/19 A2985 RMK A01 T02460187  RH  070%=      5-min Rain = 0
KCR2 270447Z 18025G30KT 25/19 A2985 RMK A01 T02460188  RH  070%=      5-min Rain = 0
KCR2 270448Z 17021G29KT 25/19 A2985 RMK A01 T02470187  RH  069%=      5-min Rain = 0
KCR2 270449Z 17020KT 25/19 A2985 RMK A01 T02470187  RH  069%=      5-min Rain = 0
KCR2 270450Z 17024G33KT 25/19 A2985 RMK A01 T02470188  RH  070%=      5-min Rain = 0
KCR2 270451Z 18019KT 25/19 A2985 RMK A01 T02470187  RH  069%=      5-min Rain = 0
KCR2 270452Z 18024G30KT 25/19 A2985 RMK A01 T02470188  RH  070%=      5-min Rain = 0
KCR2 270453Z 18026KT 25/19 A2985 RMK A01 T02470187  RH  069%=      5-min Rain = 0
KCR2 270454Z 18023G28KT 25/19 A2985 RMK A01 T02470187  RH  069%=      5-min Rain = 0
KCR2 270455Z 18025KT 25/19 A2985 RMK A01 T02470187  RH  069%=      5-min Rain = 0
KCR2 270456Z 17020G25KT 25/19 A2985 RMK A01 T02480187  RH  069%=      5-min Rain = 0
KCR2 270457Z 18024G31KT 25/19 A2985 RMK A01 T02470188  RH  069%=      5-min Rain = 0
KCR2 270458Z 17024G29KT 25/19 A2985 RMK A01 T02470188  RH  069%=      5-min Rain = 0
KCR2 270459Z 17022KT 25/19 A2985 RMK A01 T02470187  RH  069%=      5-min Rain = 0

Page generated in 0.1729 seconds.